DAL54 KATL-DNMM
Flight info
| Callsign | DAL54 |
|---|---|
| Flight time | 10h 35m |
| Altitude | 35000 |
| Route | PHIIL3 HRTWL Q64 TYI DCT ORF AR9 ZIBUT/M082F350 DCT KINER DCT 35N060W/M082F370 31N050W 28N040W DCT ULTEM/N0471F390 UR976 ANITI UR979 PIVKI DCT TUSEK UL225 USTIX DCT LM UL433 TYE TYE1N |
| Aircraft | A333/H-SDE3GHIJ2J3J5M1RVWXY/LB2D1 |
Departure
| Time | 2026-05-07 18:21 |
|---|---|
| Airport | Hartsfield Jackson Atlanta International Airport (KATL) |
Arrival
| Time | 2026-05-08 04:56 |
|---|---|
| Airport | Murtala Muhammed International Airport (DNMM) |
| Time | Latitude | Longitude | Altitude | Speed | Heading |
|---|---|---|---|---|---|
| 2026-05-07 17:58 | 33.64131 | -84.42471 | 1003 ft | 0 kts | 225° |
| 2026-05-07 18:09 | 33.64135 | -84.42467 | 1000 ft | 2 kts | 233° |
| 2026-05-07 18:09 | 33.64145 | -84.42454 | 999 ft | 2 kts | 216° |
| 2026-05-07 18:09 | 33.64153 | -84.42447 | 999 ft | 2 kts | 211° |
| 2026-05-07 18:10 | 33.64165 | -84.42439 | 998 ft | 2 kts | 207° |
| 2026-05-07 18:10 | 33.64179 | -84.42430 | 998 ft | 2 kts | 202° |
| 2026-05-07 18:10 | 33.64193 | -84.42424 | 997 ft | 2 kts | 197° |
| 2026-05-07 18:10 | 33.64206 | -84.42420 | 997 ft | 2 kts | 191° |
| 2026-05-07 18:11 | 33.64221 | -84.42417 | 997 ft | 2 kts | 186° |
| 2026-05-07 18:11 | 33.64231 | -84.42416 | 996 ft | 2 kts | 182° |
| 2026-05-07 18:11 | 33.64249 | -84.42416 | 996 ft | 2 kts | 181° |
| 2026-05-07 18:11 | 33.64255 | -84.42415 | 996 ft | 0 kts | 181° |
| 2026-05-07 18:14 | 33.64252 | -84.42415 | 996 ft | 0 kts | 181° |
| 2026-05-07 18:14 | 33.64241 | -84.42414 | 996 ft | 2 kts | 173° |
| 2026-05-07 18:14 | 33.64220 | -84.42403 | 996 ft | 4 kts | 148° |
| 2026-05-07 18:14 | 33.64201 | -84.42358 | 995 ft | 8 kts | 104° |
| 2026-05-07 18:15 | 33.64190 | -84.42266 | 990 ft | 13 kts | 119° |
| 2026-05-07 18:15 | 33.64099 | -84.42239 | 989 ft | 14 kts | 185° |
| 2026-05-07 18:15 | 33.64006 | -84.42241 | 989 ft | 12 kts | 180° |
| 2026-05-07 18:15 | 33.63926 | -84.42241 | 990 ft | 10 kts | 180° |
| 2026-05-07 18:16 | 33.63863 | -84.42238 | 991 ft | 8 kts | 176° |
| 2026-05-07 18:16 | 33.63804 | -84.42234 | 990 ft | 8 kts | 178° |
| 2026-05-07 18:16 | 33.63751 | -84.42233 | 990 ft | 7 kts | 180° |
| 2026-05-07 18:16 | 33.63704 | -84.42233 | 990 ft | 6 kts | 180° |
| 2026-05-07 18:17 | 33.63665 | -84.42220 | 990 ft | 6 kts | 137° |
| 2026-05-07 18:17 | 33.63656 | -84.42162 | 988 ft | 8 kts | 91° |
| 2026-05-07 18:17 | 33.63655 | -84.42077 | 985 ft | 11 kts | 91° |
| 2026-05-07 18:17 | 33.63654 | -84.41968 | 980 ft | 14 kts | 91° |
| 2026-05-07 18:18 | 33.63655 | -84.41824 | 972 ft | 19 kts | 90° |
| 2026-05-07 18:18 | 33.63656 | -84.41661 | 969 ft | 20 kts | 90° |
| 2026-05-07 18:18 | 33.63656 | -84.41493 | 966 ft | 20 kts | 90° |
| 2026-05-07 18:18 | 33.63655 | -84.41323 | 966 ft | 19 kts | 90° |
| 2026-05-07 18:19 | 33.63656 | -84.41162 | 966 ft | 18 kts | 90° |
| 2026-05-07 18:19 | 33.63655 | -84.41003 | 962 ft | 19 kts | 91° |
| 2026-05-07 18:19 | 33.63573 | -84.40906 | 959 ft | 18 kts | 181° |
| 2026-05-07 18:19 | 33.63477 | -84.40925 | 959 ft | 9 kts | 240° |
| 2026-05-07 18:20 | 33.63473 | -84.41082 | 964 ft | 42 kts | 270° |
| 2026-05-07 18:20 | 33.63472 | -84.41704 | 971 ft | 104 kts | 270° |
| 2026-05-07 18:20 | 33.63467 | -84.42777 | 1006 ft | 154 kts | 270° |
| 2026-05-07 18:20 | 33.63461 | -84.44128 | 1237 ft | 177 kts | 272° |
| 2026-05-07 18:21 | 33.63412 | -84.45612 | 1819 ft | 184 kts | 268° |
| 2026-05-07 18:21 | 33.63209 | -84.47169 | 2449 ft | 194 kts | 255° |
| 2026-05-07 18:21 | 33.62621 | -84.48592 | 3021 ft | 196 kts | 243° |
| 2026-05-07 18:21 | 33.61912 | -84.50005 | 3366 ft | 198 kts | 242° |
| 2026-05-07 18:22 | 33.61198 | -84.51422 | 3729 ft | 198 kts | 243° |
| 2026-05-07 18:22 | 33.60722 | -84.52361 | 3971 ft | 199 kts | 242° |
| 2026-05-07 18:22 | 33.59659 | -84.54228 | 4284 ft | 210 kts | 237° |
| 2026-05-07 18:22 | 33.58783 | -84.55703 | 4485 ft | 222 kts | 236° |
| 2026-05-07 18:23 | 33.57740 | -84.57134 | 4693 ft | 239 kts | 221° |
| 2026-05-07 18:23 | 33.56217 | -84.58116 | 4862 ft | 264 kts | 202° |
| 2026-05-07 18:23 | 33.54342 | -84.58440 | 5291 ft | 278 kts | 184° |
| 2026-05-07 18:23 | 33.52421 | -84.58437 | 5991 ft | 276 kts | 184° |
| 2026-05-07 18:24 | 33.50491 | -84.58442 | 6494 ft | 279 kts | 186° |
| 2026-05-07 18:24 | 33.48535 | -84.58226 | 6984 ft | 289 kts | 165° |
| 2026-05-07 18:24 | 33.46811 | -84.57006 | 7490 ft | 300 kts | 139° |
| 2026-05-07 18:24 | 33.45669 | -84.54888 | 8020 ft | 308 kts | 110° |
| 2026-05-07 18:25 | 33.45416 | -84.52401 | 8760 ft | 304 kts | 84° |
| 2026-05-07 18:25 | 33.45610 | -84.49920 | 9535 ft | 299 kts | 88° |
| 2026-05-07 18:25 | 33.45644 | -84.47488 | 10270 ft | 296 kts | 90° |
| 2026-05-07 18:25 | 33.45644 | -84.44938 | 10391 ft | 317 kts | 91° |
| 2026-05-07 18:26 | 33.45633 | -84.42195 | 10313 ft | 341 kts | 91° |
| 2026-05-07 18:26 | 33.45617 | -84.39291 | 10275 ft | 362 kts | 91° |
| 2026-05-07 18:26 | 33.45599 | -84.36241 | 10236 ft | 381 kts | 91° |
| 2026-05-07 18:26 | 33.45753 | -84.32989 | 10202 ft | 400 kts | 78° |
| 2026-05-07 18:27 | 33.46503 | -84.29961 | 10361 ft | 410 kts | 71° |
| 2026-05-07 18:27 | 33.47344 | -84.26679 | 10800 ft | 414 kts | 71° |
| 2026-05-07 18:27 | 33.48183 | -84.23377 | 11238 ft | 418 kts | 71° |
| 2026-05-07 18:27 | 33.49001 | -84.20143 | 11552 ft | 425 kts | 70° |
| 2026-05-07 18:28 | 33.49842 | -84.16831 | 11961 ft | 429 kts | 70° |
| 2026-05-07 18:28 | 33.50705 | -84.13419 | 12436 ft | 431 kts | 70° |
| 2026-05-07 18:28 | 33.51551 | -84.10066 | 12781 ft | 436 kts | 70° |
| 2026-05-07 18:28 | 33.52418 | -84.06637 | 13182 ft | 440 kts | 70° |
| 2026-05-07 18:29 | 33.53305 | -84.03108 | 13591 ft | 443 kts | 70° |
| 2026-05-07 18:29 | 33.54216 | -83.99496 | 13968 ft | 447 kts | 70° |
| 2026-05-07 18:29 | 33.55062 | -83.96119 | 14330 ft | 451 kts | 70° |
| 2026-05-07 18:29 | 33.55974 | -83.92482 | 14675 ft | 455 kts | 70° |
| 2026-05-07 18:30 | 33.56889 | -83.88836 | 15028 ft | 459 kts | 71° |
| 2026-05-07 18:30 | 33.57761 | -83.85336 | 15372 ft | 463 kts | 70° |
| 2026-05-07 18:30 | 33.58791 | -83.81708 | 15730 ft | 463 kts | 63° |
| 2026-05-07 18:30 | 33.60142 | -83.78175 | 16070 ft | 466 kts | 61° |
| 2026-05-07 18:31 | 33.61446 | -83.74770 | 16350 ft | 471 kts | 61° |
| 2026-05-07 18:31 | 33.62768 | -83.71280 | 16707 ft | 473 kts | 62° |
| 2026-05-07 18:31 | 33.64134 | -83.67690 | 17052 ft | 476 kts | 62° |
| 2026-05-07 18:31 | 33.65464 | -83.64063 | 17376 ft | 482 kts | 66° |
| 2026-05-07 18:32 | 33.66305 | -83.60269 | 17631 ft | 488 kts | 76° |
| 2026-05-07 18:32 | 33.67033 | -83.56300 | 17992 ft | 490 kts | 75° |
| 2026-05-07 18:32 | 33.67771 | -83.52354 | 18372 ft | 492 kts | 75° |
| 2026-05-07 18:32 | 33.68522 | -83.48334 | 18670 ft | 495 kts | 76° |
| 2026-05-07 18:33 | 33.69274 | -83.44295 | 19009 ft | 497 kts | 76° |
| 2026-05-07 18:33 | 33.70024 | -83.40276 | 19350 ft | 499 kts | 76° |
| 2026-05-07 18:33 | 33.70766 | -83.36279 | 19606 ft | 503 kts | 76° |
| 2026-05-07 18:33 | 33.71541 | -83.32116 | 19945 ft | 504 kts | 77° |
| 2026-05-07 18:34 | 33.72288 | -83.28083 | 20203 ft | 507 kts | 76° |
| 2026-05-07 18:34 | 33.72992 | -83.24270 | 20469 ft | 508 kts | 76° |
| 2026-05-07 18:34 | 33.73776 | -83.20037 | 20759 ft | 510 kts | 77° |
| 2026-05-07 18:34 | 33.74578 | -83.15893 | 20994 ft | 511 kts | 72° |
| 2026-05-07 18:35 | 33.75905 | -83.12157 | 21153 ft | 507 kts | 56° |
| 2026-05-07 18:35 | 33.77742 | -83.08666 | 21386 ft | 507 kts | 53° |
| 2026-05-07 18:35 | 33.79620 | -83.05070 | 21732 ft | 507 kts | 53° |
| 2026-05-07 18:35 | 33.81476 | -83.01496 | 21945 ft | 510 kts | 53° |
| 2026-05-07 18:36 | 33.83236 | -82.98090 | 22138 ft | 512 kts | 53° |
| 2026-05-07 18:36 | 33.85131 | -82.94420 | 22386 ft | 514 kts | 53° |
| 2026-05-07 18:36 | 33.86994 | -82.90811 | 22564 ft | 517 kts | 53° |
| 2026-05-07 18:36 | 33.88829 | -82.87247 | 22779 ft | 519 kts | 53° |
| 2026-05-07 18:37 | 33.90744 | -82.83518 | 23045 ft | 520 kts | 53° |
| 2026-05-07 18:37 | 33.92623 | -82.79861 | 23258 ft | 522 kts | 53° |
| 2026-05-07 18:37 | 33.94507 | -82.76197 | 23468 ft | 524 kts | 53° |
| 2026-05-07 18:37 | 33.96410 | -82.72491 | 23654 ft | 527 kts | 53° |
| 2026-05-07 18:38 | 33.98312 | -82.68767 | 23866 ft | 529 kts | 53° |
| 2026-05-07 18:38 | 34.00109 | -82.65231 | 24125 ft | 530 kts | 53° |
| 2026-05-07 18:38 | 34.02045 | -82.61414 | 24303 ft | 532 kts | 54° |
| 2026-05-07 18:38 | 34.03994 | -82.57552 | 24501 ft | 535 kts | 53° |
| 2026-05-07 18:39 | 34.05827 | -82.53921 | 24748 ft | 535 kts | 54° |
| 2026-05-07 18:39 | 34.07746 | -82.50121 | 24938 ft | 538 kts | 53° |
| 2026-05-07 18:39 | 34.09697 | -82.46249 | 25175 ft | 539 kts | 53° |
| 2026-05-07 18:39 | 34.11546 | -82.42579 | 25339 ft | 542 kts | 53° |
| 2026-05-07 18:40 | 34.13481 | -82.38731 | 25608 ft | 542 kts | 53° |
| 2026-05-07 18:40 | 34.15452 | -82.34805 | 25771 ft | 545 kts | 54° |
| 2026-05-07 18:40 | 34.17379 | -82.30969 | 25909 ft | 547 kts | 54° |
| 2026-05-07 18:40 | 34.19344 | -82.27049 | 26096 ft | 549 kts | 54° |
| 2026-05-07 18:41 | 34.21314 | -82.23116 | 26254 ft | 551 kts | 54° |
| 2026-05-07 18:41 | 34.23262 | -82.19223 | 26445 ft | 552 kts | 54° |
| 2026-05-07 18:41 | 34.25217 | -82.15305 | 26663 ft | 552 kts | 54° |
| 2026-05-07 18:41 | 34.27213 | -82.11349 | 26804 ft | 555 kts | 53° |
| 2026-05-07 18:42 | 34.29234 | -82.07339 | 26989 ft | 556 kts | 53° |
| 2026-05-07 18:42 | 34.31120 | -82.03587 | 27093 ft | 559 kts | 53° |
| 2026-05-07 18:42 | 34.33116 | -81.99619 | 27318 ft | 559 kts | 53° |
| 2026-05-07 18:42 | 34.35139 | -81.95592 | 27388 ft | 563 kts | 53° |
| 2026-05-07 18:43 | 34.37127 | -81.91625 | 27593 ft | 563 kts | 53° |
| 2026-05-07 18:43 | 34.39125 | -81.87631 | 27795 ft | 564 kts | 53° |
| 2026-05-07 18:43 | 34.41151 | -81.83585 | 27926 ft | 566 kts | 53° |
| 2026-05-07 18:43 | 34.43178 | -81.79524 | 28138 ft | 566 kts | 54° |
| 2026-05-07 18:44 | 34.45170 | -81.75539 | 28266 ft | 568 kts | 53° |
| 2026-05-07 18:44 | 34.47222 | -81.71423 | 28403 ft | 570 kts | 53° |
| 2026-05-07 18:44 | 34.49241 | -81.67363 | 28558 ft | 571 kts | 54° |
| 2026-05-07 18:44 | 34.51281 | -81.63262 | 28759 ft | 571 kts | 53° |
| 2026-05-07 18:45 | 34.53333 | -81.59138 | 28823 ft | 574 kts | 53° |
| 2026-05-07 18:45 | 34.55396 | -81.54978 | 29053 ft | 573 kts | 53° |
| 2026-05-07 18:45 | 34.57379 | -81.50975 | 29203 ft | 574 kts | 53° |
| 2026-05-07 18:45 | 34.59439 | -81.46812 | 29378 ft | 574 kts | 53° |
| 2026-05-07 18:46 | 34.61482 | -81.42693 | 29505 ft | 575 kts | 54° |
| 2026-05-07 18:46 | 34.63454 | -81.38689 | 29811 ft | 572 kts | 53° |
| 2026-05-07 18:46 | 34.65470 | -81.34612 | 29952 ft | 574 kts | 54° |
| 2026-05-07 18:47 | 34.69500 | -81.26423 | 30253 ft | 574 kts | 54° |
| 2026-05-07 18:47 | 34.71445 | -81.22472 | 30375 ft | 575 kts | 54° |
| 2026-05-07 18:47 | 34.73501 | -81.18284 | 30525 ft | 575 kts | 54° |
| 2026-05-07 18:47 | 34.75568 | -81.14069 | 30686 ft | 575 kts | 54° |
| 2026-05-07 18:48 | 34.77522 | -81.10089 | 30798 ft | 576 kts | 54° |
| 2026-05-07 18:48 | 34.79509 | -81.05960 | 30940 ft | 578 kts | 57° |
| 2026-05-07 18:48 | 34.81219 | -81.01536 | 31085 ft | 581 kts | 62° |
| 2026-05-07 18:48 | 34.82864 | -80.97082 | 31243 ft | 581 kts | 62° |
| 2026-05-07 18:49 | 34.84499 | -80.92645 | 31340 ft | 582 kts | 62° |
| 2026-05-07 18:49 | 34.86168 | -80.88139 | 31483 ft | 583 kts | 62° |
| 2026-05-07 18:49 | 34.87771 | -80.83776 | 31649 ft | 583 kts | 63° |
| 2026-05-07 18:49 | 34.89373 | -80.79413 | 31845 ft | 581 kts | 63° |
| 2026-05-07 18:50 | 34.91043 | -80.74867 | 31963 ft | 583 kts | 62° |
| 2026-05-07 18:50 | 34.92628 | -80.70541 | 32130 ft | 583 kts | 63° |
| 2026-05-07 18:50 | 34.94177 | -80.66312 | 32290 ft | 582 kts | 63° |
| 2026-05-07 18:50 | 34.95840 | -80.61762 | 32449 ft | 583 kts | 63° |
| 2026-05-07 18:51 | 34.97496 | -80.57224 | 32588 ft | 583 kts | 63° |
| 2026-05-07 18:51 | 34.99016 | -80.53066 | 32752 ft | 583 kts | 62° |
| 2026-05-07 18:51 | 35.00660 | -80.48543 | 32895 ft | 584 kts | 63° |
| 2026-05-07 18:51 | 35.02306 | -80.44012 | 33049 ft | 584 kts | 63° |
| 2026-05-07 18:52 | 35.03908 | -80.39608 | 33256 ft | 584 kts | 63° |
| 2026-05-07 18:52 | 35.05547 | -80.35092 | 33435 ft | 584 kts | 64° |
| 2026-05-07 18:52 | 35.07200 | -80.30518 | 33636 ft | 583 kts | 64° |
| 2026-05-07 18:52 | 35.08778 | -80.26158 | 33774 ft | 583 kts | 63° |
| 2026-05-07 18:53 | 35.10424 | -80.21594 | 33950 ft | 583 kts | 64° |
| 2026-05-07 18:53 | 35.12068 | -80.17033 | 34070 ft | 583 kts | 63° |
| 2026-05-07 18:53 | 35.13571 | -80.12856 | 34280 ft | 581 kts | 63° |
| 2026-05-07 18:53 | 35.15216 | -80.08285 | 34404 ft | 581 kts | 64° |
| 2026-05-07 18:54 | 35.16833 | -80.03780 | 34588 ft | 580 kts | 63° |
| 2026-05-07 18:54 | 35.18390 | -79.99439 | 34694 ft | 581 kts | 63° |
| 2026-05-07 18:54 | 35.19958 | -79.95069 | 34865 ft | 580 kts | 64° |
| 2026-05-07 18:55 | 35.23167 | -79.86098 | 34823 ft | 587 kts | 63° |
| 2026-05-07 18:55 | 35.26385 | -79.77092 | 34829 ft | 590 kts | 63° |
| 2026-05-07 18:56 | 35.29575 | -79.68137 | 34832 ft | 593 kts | 64° |
| 2026-05-07 18:56 | 35.32844 | -79.58929 | 34851 ft | 596 kts | 63° |
| 2026-05-07 18:57 | 35.36083 | -79.49772 | 34859 ft | 596 kts | 63° |
| 2026-05-07 18:57 | 35.39194 | -79.40956 | 34857 ft | 592 kts | 63° |
| 2026-05-07 18:58 | 35.42472 | -79.31652 | 34826 ft | 590 kts | 64° |
| 2026-05-07 18:58 | 35.45591 | -79.22768 | 34838 ft | 592 kts | 64° |
| 2026-05-07 18:59 | 35.48801 | -79.13583 | 34838 ft | 593 kts | 64° |
| 2026-05-07 18:59 | 35.52041 | -79.04295 | 34842 ft | 593 kts | 64° |
| 2026-05-07 19:00 | 35.55193 | -78.95240 | 34846 ft | 593 kts | 64° |
| 2026-05-07 19:00 | 35.58312 | -78.86234 | 34852 ft | 587 kts | 64° |
| 2026-05-07 19:01 | 35.61461 | -78.77131 | 34862 ft | 586 kts | 64° |
| 2026-05-07 19:01 | 35.64469 | -78.68394 | 34864 ft | 586 kts | 64° |
| 2026-05-07 19:02 | 35.67624 | -78.59202 | 34870 ft | 586 kts | 64° |
| 2026-05-07 19:02 | 35.70714 | -78.50195 | 34872 ft | 585 kts | 64° |
| 2026-05-07 19:03 | 35.73857 | -78.40987 | 34867 ft | 590 kts | 64° |
| 2026-05-07 19:03 | 35.76960 | -78.31883 | 34853 ft | 589 kts | 64° |
| 2026-05-07 19:04 | 35.80014 | -78.22900 | 34854 ft | 583 kts | 65° |
| 2026-05-07 19:04 | 35.82954 | -78.14217 | 34862 ft | 584 kts | 65° |
| 2026-05-07 19:05 | 35.86112 | -78.04854 | 34858 ft | 583 kts | 64° |
| 2026-05-07 19:05 | 35.89124 | -77.95924 | 34859 ft | 588 kts | 65° |
| 2026-05-07 19:06 | 35.92223 | -77.86674 | 34865 ft | 587 kts | 64° |
| 2026-05-07 19:06 | 35.96773 | -77.73093 | 34870 ft | 579 kts | 63° |
| 2026-05-07 19:07 | 35.98576 | -77.68763 | 34863 ft | 571 kts | 51° |
| 2026-05-07 19:07 | 36.00933 | -77.64885 | 34904 ft | 564 kts | 42° |
| 2026-05-07 19:07 | 36.05628 | -77.57561 | 34880 ft | 570 kts | 45° |
| 2026-05-07 19:08 | 36.10382 | -77.49902 | 34883 ft | 569 kts | 45° |
| 2026-05-07 19:08 | 36.15048 | -77.42345 | 34876 ft | 568 kts | 45° |
| 2026-05-07 19:09 | 36.19776 | -77.34679 | 34881 ft | 569 kts | 46° |
| 2026-05-07 19:09 | 36.24499 | -77.27005 | 34867 ft | 569 kts | 46° |
| 2026-05-07 19:10 | 36.29258 | -77.19250 | 34857 ft | 569 kts | 47° |
| 2026-05-07 19:10 | 36.33796 | -77.11845 | 34874 ft | 571 kts | 47° |
| 2026-05-07 19:11 | 36.38605 | -77.03957 | 34869 ft | 569 kts | 46° |
| 2026-05-07 19:11 | 36.43202 | -76.96423 | 34881 ft | 569 kts | 47° |
| 2026-05-07 19:12 | 36.47929 | -76.88652 | 34881 ft | 573 kts | 47° |
| 2026-05-07 19:12 | 36.52654 | -76.80856 | 34883 ft | 570 kts | 46° |
| 2026-05-07 19:13 | 36.57353 | -76.73119 | 34895 ft | 572 kts | 47° |
| 2026-05-07 19:13 | 36.61935 | -76.65517 | 34904 ft | 572 kts | 46° |
| 2026-05-07 19:14 | 36.66685 | -76.57647 | 34906 ft | 572 kts | 47° |
| 2026-05-07 19:14 | 36.71115 | -76.50275 | 34913 ft | 577 kts | 47° |
| 2026-05-07 19:15 | 36.75988 | -76.42145 | 34895 ft | 576 kts | 47° |
| 2026-05-07 19:15 | 36.80530 | -76.34542 | 34924 ft | 574 kts | 47° |
| 2026-05-07 19:16 | 36.85150 | -76.26826 | 34912 ft | 572 kts | 48° |
| 2026-05-07 19:16 | 36.87274 | -76.22657 | 34905 ft | 577 kts | 60° |
| 2026-05-07 19:16 | 36.88824 | -76.18075 | 34915 ft | 581 kts | 71° |
| 2026-05-07 19:17 | 36.89724 | -76.13357 | 34911 ft | 580 kts | 84° |
| 2026-05-07 19:17 | 36.89929 | -76.08417 | 34931 ft | 575 kts | 97° |
| 2026-05-07 19:17 | 36.89784 | -75.98646 | 34894 ft | 580 kts | 90° |
| 2026-05-07 19:18 | 36.90019 | -75.88710 | 34914 ft | 578 kts | 90° |
| 2026-05-07 19:18 | 36.90264 | -75.79275 | 34910 ft | 577 kts | 92° |
| 2026-05-07 19:19 | 36.90496 | -75.69280 | 34911 ft | 576 kts | 91° |
| 2026-05-07 19:19 | 36.90735 | -75.59387 | 34921 ft | 579 kts | 90° |
| 2026-05-07 19:20 | 36.90960 | -75.49430 | 34909 ft | 579 kts | 90° |
| 2026-05-07 19:20 | 36.91170 | -75.39421 | 34918 ft | 576 kts | 91° |
| 2026-05-07 19:21 | 36.91487 | -75.29661 | 34886 ft | 578 kts | 90° |
| 2026-05-07 19:21 | 36.91813 | -75.19897 | 34881 ft | 577 kts | 90° |
| 2026-05-07 19:22 | 36.91957 | -75.09948 | 34878 ft | 578 kts | 92° |
| 2026-05-07 19:22 | 36.92120 | -75.00099 | 34886 ft | 576 kts | 91° |
| 2026-05-07 19:23 | 36.92263 | -74.90233 | 34867 ft | 573 kts | 92° |
| 2026-05-07 19:23 | 36.92399 | -74.80307 | 34889 ft | 574 kts | 92° |
| 2026-05-07 19:24 | 36.92516 | -74.70490 | 34890 ft | 573 kts | 91° |
| 2026-05-07 19:24 | 36.92639 | -74.60718 | 34904 ft | 572 kts | 90° |
| 2026-05-07 19:25 | 36.92751 | -74.50913 | 34894 ft | 571 kts | 90° |
| 2026-05-07 19:25 | 36.92867 | -74.41174 | 34889 ft | 571 kts | 91° |
| 2026-05-07 19:26 | 36.93012 | -74.31316 | 34889 ft | 571 kts | 91° |
| 2026-05-07 19:26 | 36.93151 | -74.21496 | 34875 ft | 570 kts | 90° |
| 2026-05-07 19:27 | 36.93278 | -74.11700 | 34879 ft | 570 kts | 91° |
| 2026-05-07 19:27 | 36.93403 | -74.01955 | 34881 ft | 569 kts | 91° |
| 2026-05-07 19:28 | 36.93513 | -73.92153 | 34877 ft | 569 kts | 91° |
| 2026-05-07 19:28 | 36.93624 | -73.82310 | 34875 ft | 567 kts | 90° |
| 2026-05-07 19:29 | 36.93719 | -73.72488 | 34880 ft | 565 kts | 90° |
| 2026-05-07 19:29 | 36.93735 | -73.62775 | 34878 ft | 566 kts | 91° |
| 2026-05-07 19:30 | 36.93749 | -73.53075 | 34872 ft | 564 kts | 91° |
| 2026-05-07 19:30 | 36.93770 | -73.43417 | 34879 ft | 563 kts | 90° |
| 2026-05-07 19:31 | 36.93793 | -73.33611 | 34862 ft | 562 kts | 91° |
| 2026-05-07 19:31 | 36.93824 | -73.23931 | 34842 ft | 560 kts | 91° |
| 2026-05-07 19:32 | 36.93838 | -73.14328 | 34844 ft | 560 kts | 90° |
| 2026-05-07 19:32 | 36.93846 | -73.04730 | 34851 ft | 560 kts | 91° |
| 2026-05-07 19:33 | 36.93857 | -72.95044 | 34848 ft | 561 kts | 91° |
| 2026-05-07 19:33 | 36.93853 | -72.85345 | 34849 ft | 561 kts | 90° |
| 2026-05-07 19:34 | 36.93850 | -72.75711 | 34842 ft | 560 kts | 91° |
| 2026-05-07 19:34 | 36.93837 | -72.66151 | 34837 ft | 559 kts | 91° |
| 2026-05-07 19:35 | 36.93195 | -72.56534 | 34849 ft | 560 kts | 96° |
| 2026-05-07 19:35 | 36.92550 | -72.46880 | 34860 ft | 559 kts | 96° |
| 2026-05-07 19:36 | 36.91909 | -72.37247 | 34848 ft | 560 kts | 96° |
| 2026-05-07 19:36 | 36.91264 | -72.27645 | 34821 ft | 557 kts | 97° |
| 2026-05-07 19:37 | 36.90612 | -72.18142 | 34821 ft | 559 kts | 96° |
| 2026-05-07 19:37 | 36.89951 | -72.08508 | 34825 ft | 558 kts | 97° |
| 2026-05-07 19:38 | 36.89274 | -71.98918 | 34821 ft | 560 kts | 96° |
| 2026-05-07 19:38 | 36.88602 | -71.89301 | 34826 ft | 557 kts | 97° |
| 2026-05-07 19:39 | 36.87922 | -71.79833 | 34824 ft | 556 kts | 97° |
| 2026-05-07 19:39 | 36.87231 | -71.70323 | 34833 ft | 558 kts | 97° |
| 2026-05-07 19:40 | 36.86527 | -71.60638 | 34830 ft | 563 kts | 96° |
| 2026-05-07 19:40 | 36.85814 | -71.50969 | 34829 ft | 564 kts | 97° |
| 2026-05-07 19:41 | 36.85098 | -71.41408 | 34834 ft | 559 kts | 97° |
| 2026-05-07 19:41 | 36.84381 | -71.31851 | 34825 ft | 556 kts | 98° |
| 2026-05-07 19:42 | 36.83644 | -71.22325 | 34814 ft | 557 kts | 97° |
| 2026-05-07 19:42 | 36.82909 | -71.12769 | 34821 ft | 558 kts | 98° |
| 2026-05-07 19:43 | 36.82172 | -71.03247 | 34832 ft | 553 kts | 98° |
| 2026-05-07 19:43 | 36.81422 | -70.93779 | 34824 ft | 554 kts | 97° |
| 2026-05-07 19:44 | 36.80677 | -70.84393 | 34842 ft | 553 kts | 97° |
| 2026-05-07 19:44 | 36.79909 | -70.74889 | 34827 ft | 551 kts | 97° |
| 2026-05-07 19:45 | 36.79139 | -70.65451 | 34851 ft | 552 kts | 97° |
| 2026-05-07 19:45 | 36.78360 | -70.55931 | 34860 ft | 553 kts | 97° |
| 2026-05-07 19:46 | 36.77580 | -70.46538 | 34831 ft | 549 kts | 98° |
| 2026-05-07 19:46 | 36.76797 | -70.37168 | 34844 ft | 552 kts | 97° |
| 2026-05-07 19:47 | 36.75999 | -70.27710 | 34808 ft | 548 kts | 98° |
| 2026-05-07 19:47 | 36.75203 | -70.18275 | 34825 ft | 550 kts | 98° |
| 2026-05-07 19:48 | 36.74397 | -70.09002 | 34839 ft | 547 kts | 98° |
| 2026-05-07 19:48 | 36.73587 | -69.99667 | 34821 ft | 550 kts | 98° |
| 2026-05-07 19:49 | 36.72755 | -69.90253 | 34819 ft | 549 kts | 97° |
| 2026-05-07 19:49 | 36.71937 | -69.80878 | 34839 ft | 548 kts | 97° |
| 2026-05-07 19:50 | 36.71088 | -69.71487 | 34857 ft | 549 kts | 97° |
| 2026-05-07 19:50 | 36.70253 | -69.62086 | 34879 ft | 551 kts | 97° |
| 2026-05-07 19:51 | 36.69395 | -69.52696 | 34889 ft | 548 kts | 97° |
| 2026-05-07 19:51 | 36.68535 | -69.43262 | 34876 ft | 547 kts | 97° |
| 2026-05-07 19:52 | 36.67670 | -69.33920 | 34860 ft | 549 kts | 97° |
| 2026-05-07 19:52 | 36.66790 | -69.24557 | 34837 ft | 546 kts | 97° |
| 2026-05-07 19:53 | 36.65916 | -69.15216 | 34868 ft | 548 kts | 97° |
| 2026-05-07 19:53 | 36.65026 | -69.05836 | 34861 ft | 549 kts | 96° |
| 2026-05-07 19:54 | 36.64129 | -68.96481 | 34865 ft | 547 kts | 96° |
| 2026-05-07 19:54 | 36.63223 | -68.87129 | 34881 ft | 544 kts | 97° |
| 2026-05-07 19:55 | 36.62314 | -68.77798 | 34868 ft | 547 kts | 96° |
| 2026-05-07 19:55 | 36.61400 | -68.68476 | 34893 ft | 545 kts | 97° |
| 2026-05-07 19:56 | 36.60479 | -68.59149 | 34883 ft | 545 kts | 96° |
| 2026-05-07 19:56 | 36.59551 | -68.49867 | 34889 ft | 547 kts | 96° |
| 2026-05-07 19:57 | 36.58614 | -68.40514 | 34901 ft | 544 kts | 97° |
| 2026-05-07 19:57 | 36.57673 | -68.31202 | 34891 ft | 546 kts | 96° |
| 2026-05-07 19:58 | 36.56381 | -68.21996 | 34881 ft | 544 kts | 101° |
| 2026-05-07 19:58 | 36.54980 | -68.12787 | 34902 ft | 547 kts | 102° |
| 2026-05-07 19:59 | 36.53555 | -68.03538 | 34928 ft | 545 kts | 100° |
| 2026-05-07 19:59 | 36.52123 | -67.94318 | 34925 ft | 542 kts | 101° |
| 2026-05-07 20:00 | 36.50701 | -67.85149 | 34924 ft | 544 kts | 100° |
| 2026-05-07 20:00 | 36.49264 | -67.75974 | 34912 ft | 541 kts | 101° |
| 2026-05-07 20:01 | 36.47837 | -67.66912 | 34920 ft | 543 kts | 101° |
| 2026-05-07 20:01 | 36.46397 | -67.57758 | 34916 ft | 540 kts | 101° |
| 2026-05-07 20:02 | 36.44944 | -67.48629 | 34944 ft | 540 kts | 101° |
| 2026-05-07 20:02 | 36.43487 | -67.39520 | 34939 ft | 540 kts | 101° |
| 2026-05-07 20:03 | 36.42018 | -67.30392 | 34917 ft | 536 kts | 103° |
| 2026-05-07 20:03 | 36.40557 | -67.21343 | 34925 ft | 536 kts | 102° |
| 2026-05-07 20:04 | 36.39089 | -67.12314 | 34919 ft | 538 kts | 102° |
| 2026-05-07 20:04 | 36.37617 | -67.03264 | 34918 ft | 539 kts | 102° |
| 2026-05-07 20:05 | 36.36129 | -66.94190 | 34919 ft | 539 kts | 102° |
| 2026-05-07 20:05 | 36.34642 | -66.85143 | 34942 ft | 536 kts | 102° |
| 2026-05-07 20:06 | 36.33157 | -66.76153 | 34926 ft | 536 kts | 102° |
| 2026-05-07 20:06 | 36.31644 | -66.67116 | 34942 ft | 536 kts | 102° |
| 2026-05-07 20:07 | 36.30159 | -66.58198 | 34934 ft | 532 kts | 101° |
| 2026-05-07 20:07 | 36.28652 | -66.49239 | 34934 ft | 533 kts | 102° |
| 2026-05-07 20:08 | 36.27155 | -66.40334 | 34955 ft | 533 kts | 102° |
| 2026-05-07 20:08 | 36.25629 | -66.31362 | 34936 ft | 531 kts | 102° |
| 2026-05-07 20:09 | 36.24116 | -66.22477 | 34953 ft | 529 kts | 102° |
| 2026-05-07 20:10 | 36.21835 | -66.09148 | 34957 ft | 529 kts | 102° |
| 2026-05-07 20:10 | 36.20310 | -66.00319 | 34961 ft | 529 kts | 101° |
| 2026-05-07 20:11 | 36.18776 | -65.91454 | 34973 ft | 528 kts | 101° |
| 2026-05-07 20:11 | 36.17234 | -65.82593 | 34979 ft | 530 kts | 101° |
| 2026-05-07 20:12 | 36.15690 | -65.73762 | 34976 ft | 529 kts | 101° |
| 2026-05-07 20:12 | 36.14133 | -65.64889 | 34983 ft | 529 kts | 101° |
| 2026-05-07 20:13 | 36.12561 | -65.55984 | 34980 ft | 532 kts | 101° |
| 2026-05-07 20:13 | 36.10994 | -65.47134 | 34976 ft | 531 kts | 101° |
| 2026-05-07 20:14 | 36.09406 | -65.38255 | 34993 ft | 531 kts | 100° |
| 2026-05-07 20:14 | 36.07822 | -65.29380 | 34980 ft | 530 kts | 101° |
| 2026-05-07 20:15 | 36.06238 | -65.20555 | 34975 ft | 530 kts | 101° |
| 2026-05-07 20:15 | 36.04638 | -65.11683 | 34965 ft | 533 kts | 101° |
| 2026-05-07 20:16 | 36.03028 | -65.02800 | 35000 ft | 533 kts | 101° |
| 2026-05-07 20:16 | 36.01411 | -64.93909 | 34986 ft | 533 kts | 101° |
| 2026-05-07 20:17 | 35.99791 | -64.85040 | 34985 ft | 530 kts | 101° |
| 2026-05-07 20:17 | 35.98165 | -64.76200 | 34988 ft | 529 kts | 102° |
| 2026-05-07 20:18 | 35.96544 | -64.67409 | 34990 ft | 529 kts | 102° |
| 2026-05-07 20:18 | 35.94899 | -64.58583 | 34998 ft | 528 kts | 102° |
| 2026-05-07 20:19 | 35.93271 | -64.49785 | 34993 ft | 528 kts | 101° |
| 2026-05-07 20:19 | 35.91633 | -64.41035 | 35007 ft | 528 kts | 101° |
| 2026-05-07 20:20 | 35.89973 | -64.32217 | 34995 ft | 524 kts | 102° |
| 2026-05-07 20:20 | 35.88329 | -64.23463 | 35003 ft | 526 kts | 102° |
| 2026-05-07 20:21 | 35.86680 | -64.14766 | 34988 ft | 523 kts | 102° |
| 2026-05-07 20:21 | 35.85013 | -64.06005 | 34992 ft | 525 kts | 102° |
| 2026-05-07 20:22 | 35.83347 | -63.97252 | 34984 ft | 521 kts | 103° |
| 2026-05-07 20:22 | 35.81680 | -63.88578 | 34999 ft | 523 kts | 102° |
| 2026-05-07 20:23 | 35.80015 | -63.79939 | 35001 ft | 522 kts | 103° |
| 2026-05-07 20:23 | 35.78328 | -63.71218 | 34993 ft | 523 kts | 102° |
| 2026-05-07 20:24 | 35.76658 | -63.62606 | 34996 ft | 521 kts | 102° |
| 2026-05-07 20:24 | 35.74971 | -63.53950 | 34990 ft | 521 kts | 103° |
| 2026-05-07 20:25 | 35.73274 | -63.45289 | 34991 ft | 520 kts | 102° |
| 2026-05-07 20:25 | 35.71586 | -63.36699 | 34994 ft | 521 kts | 102° |
| 2026-05-07 20:26 | 35.69886 | -63.28079 | 34985 ft | 520 kts | 103° |
| 2026-05-07 20:26 | 35.68182 | -63.19488 | 34987 ft | 517 kts | 103° |
| 2026-05-07 20:27 | 35.66483 | -63.10931 | 34990 ft | 519 kts | 103° |
| 2026-05-07 20:27 | 35.64766 | -63.02339 | 34994 ft | 520 kts | 103° |
| 2026-05-07 20:28 | 35.63036 | -62.93720 | 34995 ft | 517 kts | 102° |
| 2026-05-07 20:28 | 35.61314 | -62.85154 | 35008 ft | 518 kts | 102° |
| 2026-05-07 20:29 | 35.59584 | -62.76600 | 35006 ft | 518 kts | 102° |
| 2026-05-07 20:29 | 35.57848 | -62.68044 | 35005 ft | 518 kts | 102° |
| 2026-05-07 20:30 | 35.56110 | -62.59508 | 35010 ft | 515 kts | 102° |
| 2026-05-07 20:30 | 35.54366 | -62.50980 | 35010 ft | 514 kts | 102° |
| 2026-05-07 20:31 | 35.52618 | -62.42473 | 35013 ft | 514 kts | 102° |
| 2026-05-07 20:31 | 35.50871 | -62.33995 | 35010 ft | 510 kts | 102° |
| 2026-05-07 20:32 | 35.49130 | -62.25557 | 35009 ft | 511 kts | 102° |
| 2026-05-07 20:32 | 35.47369 | -62.17091 | 35001 ft | 512 kts | 102° |
| 2026-05-07 20:33 | 35.45607 | -62.08635 | 35009 ft | 508 kts | 102° |
| 2026-05-07 20:33 | 35.43855 | -62.00273 | 35007 ft | 510 kts | 102° |
| 2026-05-07 20:34 | 35.42092 | -61.91884 | 35004 ft | 510 kts | 101° |
| 2026-05-07 20:34 | 35.40316 | -61.83448 | 35013 ft | 507 kts | 102° |
| 2026-05-07 20:35 | 35.38557 | -61.75133 | 35019 ft | 507 kts | 101° |
| 2026-05-07 20:35 | 35.36779 | -61.66768 | 35015 ft | 509 kts | 102° |
| 2026-05-07 20:36 | 35.35004 | -61.58427 | 35023 ft | 506 kts | 102° |
| 2026-05-07 20:36 | 35.33223 | -61.50090 | 35030 ft | 507 kts | 101° |
| 2026-05-07 20:37 | 35.31434 | -61.41764 | 35027 ft | 507 kts | 102° |
| 2026-05-07 20:37 | 35.29632 | -61.33406 | 35032 ft | 505 kts | 102° |
| 2026-05-07 20:38 | 35.27846 | -61.25137 | 35022 ft | 505 kts | 102° |
| 2026-05-07 20:38 | 35.26031 | -61.16786 | 35022 ft | 505 kts | 102° |
| 2026-05-07 20:39 | 35.24238 | -61.08559 | 35017 ft | 504 kts | 101° |
| 2026-05-07 20:39 | 35.22409 | -61.00199 | 35023 ft | 504 kts | 101° |
| 2026-05-07 20:40 | 35.20600 | -60.91947 | 35032 ft | 505 kts | 102° |
| 2026-05-07 20:40 | 35.18783 | -60.83698 | 35022 ft | 505 kts | 101° |
| 2026-05-07 20:41 | 35.16951 | -60.75399 | 35019 ft | 507 kts | 101° |
| 2026-05-07 20:41 | 35.15104 | -60.67070 | 35022 ft | 507 kts | 102° |
| 2026-05-07 20:42 | 35.13256 | -60.58750 | 35022 ft | 504 kts | 101° |
| 2026-05-07 20:42 | 35.11408 | -60.50484 | 35027 ft | 508 kts | 101° |
| 2026-05-07 20:43 | 35.09552 | -60.42183 | 35032 ft | 510 kts | 101° |
| 2026-05-07 20:43 | 35.07672 | -60.33835 | 35016 ft | 512 kts | 102° |
| 2026-05-07 20:44 | 35.05773 | -60.25438 | 35027 ft | 510 kts | 102° |
| 2026-05-07 20:44 | 35.03892 | -60.17125 | 35025 ft | 511 kts | 102° |
| 2026-05-07 20:45 | 35.01992 | -60.08750 | 35025 ft | 514 kts | 102° |
| 2026-05-07 20:45 | 35.00068 | -60.00470 | 35027 ft | 512 kts | 105° |
| 2026-05-07 20:46 | 34.97373 | -59.92370 | 35036 ft | 518 kts | 110° |
| 2026-05-07 20:46 | 34.94587 | -59.84271 | 35038 ft | 515 kts | 110° |
| 2026-05-07 20:47 | 34.91816 | -59.76239 | 35041 ft | 515 kts | 109° |
| 2026-05-07 20:47 | 34.89051 | -59.68238 | 35031 ft | 515 kts | 110° |
| 2026-05-07 20:48 | 34.86251 | -59.60166 | 35030 ft | 516 kts | 109° |
| 2026-05-07 20:48 | 34.83469 | -59.52166 | 35028 ft | 515 kts | 109° |
| 2026-05-07 20:49 | 34.80694 | -59.44199 | 35035 ft | 512 kts | 109° |
| 2026-05-07 20:49 | 34.77879 | -59.36140 | 35033 ft | 514 kts | 109° |
| 2026-05-07 20:50 | 34.75093 | -59.28185 | 35020 ft | 514 kts | 110° |
| 2026-05-07 20:50 | 34.72288 | -59.20197 | 35022 ft | 513 kts | 110° |
| 2026-05-07 20:51 | 34.69462 | -59.12183 | 35034 ft | 515 kts | 109° |
| 2026-05-07 20:51 | 34.66659 | -59.04245 | 35029 ft | 511 kts | 110° |
| 2026-05-07 20:52 | 34.63850 | -58.96302 | 35024 ft | 515 kts | 109° |
| 2026-05-07 20:52 | 34.61013 | -58.88306 | 35019 ft | 513 kts | 109° |
| 2026-05-07 20:53 | 34.58205 | -58.80412 | 35025 ft | 511 kts | 108° |
| 2026-05-07 20:53 | 34.55382 | -58.72497 | 35031 ft | 515 kts | 109° |
| 2026-05-07 20:54 | 34.52522 | -58.64487 | 35023 ft | 517 kts | 108° |
| 2026-05-07 20:54 | 34.49662 | -58.56509 | 35021 ft | 514 kts | 108° |
| 2026-05-07 20:55 | 34.46826 | -58.48612 | 35024 ft | 515 kts | 108° |
| 2026-05-07 20:55 | 34.43950 | -58.40631 | 35025 ft | 514 kts | 108° |
| 2026-05-07 20:56 | 34.41096 | -58.32728 | 35023 ft | 512 kts | 108° |
| 2026-05-07 20:56 | 34.38236 | -58.24819 | 35025 ft | 514 kts | 108° |
| 2026-05-07 20:57 | 34.35357 | -58.16888 | 35022 ft | 516 kts | 108° |
| 2026-05-07 20:57 | 34.32464 | -58.08934 | 35025 ft | 515 kts | 108° |
| 2026-05-07 20:58 | 34.29583 | -58.01034 | 35022 ft | 515 kts | 108° |
| 2026-05-07 20:58 | 34.26685 | -57.93100 | 35018 ft | 515 kts | 108° |
| 2026-05-07 20:59 | 34.23792 | -57.85210 | 35017 ft | 514 kts | 108° |
| 2026-05-07 20:59 | 34.20903 | -57.77334 | 35026 ft | 515 kts | 108° |
| 2026-05-07 21:00 | 34.17987 | -57.69416 | 35018 ft | 516 kts | 107° |
| 2026-05-07 21:00 | 34.15057 | -57.61482 | 35028 ft | 517 kts | 107° |
| 2026-05-07 21:01 | 34.12147 | -57.53617 | 35026 ft | 515 kts | 107° |
| 2026-05-07 21:01 | 34.09205 | -57.45686 | 35030 ft | 517 kts | 107° |
| 2026-05-07 21:02 | 34.06263 | -57.37767 | 35023 ft | 517 kts | 106° |
| 2026-05-07 21:02 | 34.03316 | -57.29868 | 35019 ft | 516 kts | 107° |
| 2026-05-07 21:03 | 34.00369 | -57.21977 | 35026 ft | 516 kts | 107° |
| 2026-05-07 21:03 | 33.97408 | -57.14066 | 35032 ft | 518 kts | 106° |
| 2026-05-07 21:04 | 33.94442 | -57.06164 | 35037 ft | 519 kts | 106° |
| 2026-05-07 21:04 | 33.91459 | -56.98233 | 35034 ft | 518 kts | 106° |
| 2026-05-07 21:05 | 33.88465 | -56.90302 | 35010 ft | 519 kts | 106° |
| 2026-05-07 21:05 | 33.85509 | -56.82485 | 35022 ft | 515 kts | 106° |
| 2026-05-07 21:06 | 33.82570 | -56.74723 | 35016 ft | 517 kts | 106° |
| 2026-05-07 21:06 | 33.79554 | -56.66785 | 35019 ft | 518 kts | 106° |
| 2026-05-07 21:07 | 33.76563 | -56.58938 | 35012 ft | 514 kts | 105° |
| 2026-05-07 21:07 | 33.73591 | -56.51144 | 35004 ft | 513 kts | 105° |
| 2026-05-07 21:08 | 33.70629 | -56.43402 | 34994 ft | 512 kts | 105° |
| 2026-05-07 21:08 | 33.67636 | -56.35600 | 34996 ft | 514 kts | 105° |
| 2026-05-07 21:09 | 33.64645 | -56.27819 | 35001 ft | 513 kts | 105° |
| 2026-05-07 21:09 | 33.61657 | -56.20057 | 34991 ft | 510 kts | 105° |
| 2026-05-07 21:10 | 33.58670 | -56.12321 | 34992 ft | 509 kts | 105° |
| 2026-05-07 21:10 | 33.55693 | -56.04626 | 34990 ft | 510 kts | 104° |
| 2026-05-07 21:11 | 33.52710 | -55.96940 | 34999 ft | 509 kts | 105° |
| 2026-05-07 21:11 | 33.48237 | -55.85436 | 34993 ft | 505 kts | 104° |
| 2026-05-07 21:12 | 33.45244 | -55.77760 | 34994 ft | 509 kts | 104° |
| 2026-05-07 21:12 | 33.42262 | -55.70139 | 34991 ft | 505 kts | 104° |
| 2026-05-07 21:13 | 33.39276 | -55.62515 | 34998 ft | 507 kts | 104° |
| 2026-05-07 21:13 | 33.36279 | -55.54895 | 34993 ft | 504 kts | 104° |
| 2026-05-07 21:14 | 33.33301 | -55.47324 | 35000 ft | 501 kts | 104° |
| 2026-05-07 21:14 | 33.30328 | -55.39784 | 34998 ft | 504 kts | 104° |
| 2026-05-07 21:15 | 33.27321 | -55.32182 | 35005 ft | 503 kts | 104° |
| 2026-05-07 21:15 | 33.24336 | -55.24649 | 35007 ft | 503 kts | 105° |
| 2026-05-07 21:16 | 33.21337 | -55.17096 | 35008 ft | 502 kts | 104° |
| 2026-05-07 21:16 | 33.18343 | -55.09576 | 35000 ft | 501 kts | 104° |
| 2026-05-07 21:17 | 33.15341 | -55.02052 | 35008 ft | 501 kts | 104° |
| 2026-05-07 21:17 | 33.12342 | -54.94542 | 35014 ft | 504 kts | 105° |
| 2026-05-07 21:18 | 33.09315 | -54.86989 | 35012 ft | 501 kts | 105° |
| 2026-05-07 21:18 | 33.06354 | -54.79613 | 35008 ft | 495 kts | 105° |
| 2026-05-07 21:19 | 33.03350 | -54.72144 | 35012 ft | 499 kts | 105° |
| 2026-05-07 21:19 | 33.00339 | -54.64678 | 35017 ft | 498 kts | 105° |
| 2026-05-07 21:20 | 32.97335 | -54.57237 | 35025 ft | 499 kts | 106° |
| 2026-05-07 21:20 | 32.94325 | -54.49815 | 35018 ft | 499 kts | 106° |
| 2026-05-07 21:21 | 32.91288 | -54.42325 | 35018 ft | 501 kts | 107° |
| 2026-05-07 21:21 | 32.88278 | -54.34925 | 34992 ft | 498 kts | 108° |
| 2026-05-07 21:22 | 32.85244 | -54.27483 | 35004 ft | 497 kts | 108° |
| 2026-05-07 21:22 | 32.82203 | -54.20038 | 35010 ft | 496 kts | 108° |
| 2026-05-07 21:23 | 32.79189 | -54.12683 | 35007 ft | 494 kts | 108° |
| 2026-05-07 21:23 | 32.76176 | -54.05323 | 35007 ft | 497 kts | 109° |
| 2026-05-07 21:24 | 32.73127 | -53.97906 | 35009 ft | 498 kts | 110° |
| 2026-05-07 21:24 | 32.70087 | -53.90534 | 35015 ft | 499 kts | 110° |
| 2026-05-07 21:25 | 32.67021 | -53.83108 | 35013 ft | 498 kts | 110° |
| 2026-05-07 21:25 | 32.63957 | -53.75692 | 35018 ft | 501 kts | 111° |
| 2026-05-07 21:26 | 32.60876 | -53.68265 | 35020 ft | 500 kts | 111° |
| 2026-05-07 21:26 | 32.57794 | -53.60845 | 35027 ft | 501 kts | 112° |
| 2026-05-07 21:27 | 32.54718 | -53.53450 | 35028 ft | 500 kts | 113° |
| 2026-05-07 21:27 | 32.51624 | -53.46030 | 35034 ft | 499 kts | 114° |
| 2026-05-07 21:28 | 32.48555 | -53.38701 | 35038 ft | 499 kts | 114° |
| 2026-05-07 21:28 | 32.45470 | -53.31332 | 35032 ft | 496 kts | 115° |
| 2026-05-07 21:29 | 32.42396 | -53.24008 | 35032 ft | 494 kts | 116° |
| 2026-05-07 21:29 | 32.39350 | -53.16768 | 35037 ft | 493 kts | 116° |
| 2026-05-07 21:30 | 32.36276 | -53.09475 | 35043 ft | 490 kts | 116° |
| 2026-05-07 21:30 | 32.33251 | -53.02314 | 35044 ft | 488 kts | 116° |
| 2026-05-07 21:31 | 32.30210 | -52.95125 | 35048 ft | 485 kts | 116° |
| 2026-05-07 21:31 | 32.27183 | -52.87987 | 35049 ft | 488 kts | 117° |
| 2026-05-07 21:32 | 32.24127 | -52.80798 | 35048 ft | 487 kts | 117° |
| 2026-05-07 21:32 | 32.21107 | -52.73699 | 35060 ft | 488 kts | 117° |
| 2026-05-07 21:33 | 32.18056 | -52.66546 | 35058 ft | 488 kts | 118° |
| 2026-05-07 21:33 | 32.14987 | -52.59366 | 35056 ft | 487 kts | 118° |
| 2026-05-07 21:34 | 32.11924 | -52.52215 | 35056 ft | 485 kts | 118° |
| 2026-05-07 21:34 | 32.08882 | -52.45126 | 35062 ft | 486 kts | 118° |
| 2026-05-07 21:35 | 32.05837 | -52.38047 | 35063 ft | 484 kts | 119° |
| 2026-05-07 21:35 | 32.02782 | -52.30950 | 35060 ft | 483 kts | 120° |
| 2026-05-07 21:36 | 31.99765 | -52.23966 | 35054 ft | 479 kts | 120° |
| 2026-05-07 21:36 | 31.96715 | -52.16914 | 35061 ft | 479 kts | 121° |
| 2026-05-07 21:37 | 31.93692 | -52.09934 | 35065 ft | 478 kts | 121° |
| 2026-05-07 21:37 | 31.90694 | -52.03030 | 35074 ft | 477 kts | 121° |
| 2026-05-07 21:38 | 31.87660 | -51.96055 | 35068 ft | 473 kts | 121° |
| 2026-05-07 21:38 | 31.84651 | -51.89151 | 35075 ft | 475 kts | 121° |
| 2026-05-07 21:39 | 31.81633 | -51.82238 | 35075 ft | 475 kts | 121° |
| 2026-05-07 21:39 | 31.78609 | -51.75325 | 35075 ft | 474 kts | 122° |
| 2026-05-07 21:40 | 31.75595 | -51.68447 | 35075 ft | 474 kts | 122° |
| 2026-05-07 21:40 | 31.72555 | -51.61527 | 35082 ft | 476 kts | 122° |
| 2026-05-07 21:41 | 31.69525 | -51.54635 | 35081 ft | 475 kts | 122° |
| 2026-05-07 21:41 | 31.66491 | -51.47756 | 35088 ft | 475 kts | 122° |
| 2026-05-07 21:42 | 31.63444 | -51.40854 | 35088 ft | 474 kts | 122° |
| 2026-05-07 21:42 | 31.60409 | -51.33994 | 35085 ft | 476 kts | 123° |
| 2026-05-07 21:43 | 31.57341 | -51.27073 | 35083 ft | 475 kts | 123° |
| 2026-05-07 21:43 | 31.54324 | -51.20278 | 35080 ft | 475 kts | 123° |
| 2026-05-07 21:44 | 31.51269 | -51.13411 | 35078 ft | 476 kts | 123° |
| 2026-05-07 21:44 | 31.48185 | -51.06492 | 35086 ft | 473 kts | 123° |
| 2026-05-07 21:45 | 31.45142 | -50.99677 | 35087 ft | 475 kts | 123° |
| 2026-05-07 21:45 | 31.42089 | -50.92852 | 35090 ft | 475 kts | 123° |
| 2026-05-07 21:46 | 31.39006 | -50.85972 | 35092 ft | 474 kts | 123° |
| 2026-05-07 21:46 | 31.35930 | -50.79121 | 35098 ft | 475 kts | 124° |
| 2026-05-07 21:47 | 31.32861 | -50.72304 | 35097 ft | 477 kts | 124° |
| 2026-05-07 21:47 | 31.29766 | -50.65431 | 35099 ft | 475 kts | 124° |
| 2026-05-07 21:48 | 31.26686 | -50.58611 | 35101 ft | 475 kts | 124° |
| 2026-05-07 21:48 | 31.23610 | -50.51811 | 35104 ft | 477 kts | 123° |
| 2026-05-07 21:49 | 31.20509 | -50.44965 | 35100 ft | 477 kts | 123° |
| 2026-05-07 21:49 | 31.17395 | -50.38107 | 35101 ft | 478 kts | 123° |
| 2026-05-07 21:50 | 31.14274 | -50.31247 | 35088 ft | 479 kts | 124° |
| 2026-05-07 21:50 | 31.11169 | -50.24428 | 35097 ft | 478 kts | 124° |
| 2026-05-07 21:51 | 31.08036 | -50.17568 | 35101 ft | 479 kts | 124° |
| 2026-05-07 21:51 | 31.04870 | -50.10645 | 35104 ft | 481 kts | 124° |
| 2026-05-07 21:52 | 31.01729 | -50.03786 | 35110 ft | 480 kts | 124° |
| 2026-05-07 21:52 | 30.98910 | -49.96732 | 35098 ft | 490 kts | 111° |
| 2026-05-07 21:53 | 30.97167 | -49.88985 | 35098 ft | 491 kts | 111° |
| 2026-05-07 21:53 | 30.95234 | -49.81327 | 35094 ft | 492 kts | 112° |
| 2026-05-07 21:54 | 30.93298 | -49.73751 | 35109 ft | 491 kts | 112° |
| 2026-05-07 21:54 | 30.91337 | -49.66111 | 35115 ft | 491 kts | 112° |
| 2026-05-07 21:55 | 30.89370 | -49.58467 | 35113 ft | 490 kts | 112° |
| 2026-05-07 21:55 | 30.87419 | -49.50915 | 35117 ft | 492 kts | 112° |
| 2026-05-07 21:56 | 30.85445 | -49.43280 | 35120 ft | 491 kts | 112° |
| 2026-05-07 21:56 | 30.83468 | -49.35662 | 35133 ft | 491 kts | 112° |
| 2026-05-07 21:57 | 30.81484 | -49.28038 | 35131 ft | 492 kts | 112° |
| 2026-05-07 21:57 | 30.79501 | -49.20436 | 35120 ft | 492 kts | 112° |
| 2026-05-07 21:58 | 30.77497 | -49.12773 | 35128 ft | 493 kts | 112° |
| 2026-05-07 21:58 | 30.75493 | -49.05130 | 35126 ft | 494 kts | 112° |
| 2026-05-07 21:59 | 30.73503 | -48.97559 | 35133 ft | 492 kts | 112° |
| 2026-05-07 21:59 | 30.71495 | -48.89944 | 35133 ft | 493 kts | 112° |
| 2026-05-07 22:00 | 30.69472 | -48.82289 | 35135 ft | 494 kts | 112° |
| 2026-05-07 22:00 | 30.67476 | -48.74758 | 35133 ft | 494 kts | 112° |
| 2026-05-07 22:01 | 30.65446 | -48.67116 | 35133 ft | 492 kts | 112° |
| 2026-05-07 22:01 | 30.63423 | -48.59522 | 35144 ft | 493 kts | 112° |
| 2026-05-07 22:02 | 30.61382 | -48.51885 | 35142 ft | 493 kts | 112° |
| 2026-05-07 22:02 | 30.59352 | -48.44299 | 35148 ft | 494 kts | 112° |
| 2026-05-07 22:03 | 30.57306 | -48.36680 | 35147 ft | 494 kts | 112° |
| 2026-05-07 22:03 | 30.55263 | -48.29091 | 35141 ft | 493 kts | 113° |
| 2026-05-07 22:04 | 30.53211 | -48.21491 | 35144 ft | 495 kts | 113° |
| 2026-05-07 22:04 | 30.51139 | -48.13826 | 35143 ft | 496 kts | 112° |
| 2026-05-07 22:05 | 30.49065 | -48.06185 | 35151 ft | 495 kts | 112° |
| 2026-05-07 22:05 | 30.47007 | -47.98614 | 35152 ft | 494 kts | 112° |
| 2026-05-07 22:06 | 30.44940 | -47.91036 | 35152 ft | 495 kts | 112° |
| 2026-05-07 22:06 | 30.42848 | -47.83376 | 35154 ft | 495 kts | 112° |
| 2026-05-07 22:07 | 30.40773 | -47.75809 | 35153 ft | 495 kts | 112° |
| 2026-05-07 22:07 | 30.38692 | -47.68232 | 35159 ft | 495 kts | 112° |
| 2026-05-07 22:08 | 30.36583 | -47.60578 | 35157 ft | 494 kts | 112° |
| 2026-05-07 22:08 | 30.34486 | -47.52981 | 35159 ft | 496 kts | 112° |
| 2026-05-07 22:09 | 30.32391 | -47.45417 | 35160 ft | 496 kts | 112° |
| 2026-05-07 22:09 | 30.30287 | -47.37834 | 35165 ft | 496 kts | 112° |
| 2026-05-07 22:10 | 30.28168 | -47.30221 | 35158 ft | 495 kts | 113° |
| 2026-05-07 22:10 | 30.26056 | -47.22650 | 35160 ft | 495 kts | 113° |
| 2026-05-07 22:11 | 30.23927 | -47.15033 | 35169 ft | 496 kts | 113° |
| 2026-05-07 22:11 | 30.21806 | -47.07461 | 35171 ft | 496 kts | 113° |
| 2026-05-07 22:12 | 30.19671 | -46.99864 | 35172 ft | 498 kts | 113° |
| 2026-05-07 22:12 | 30.17522 | -46.92238 | 35166 ft | 497 kts | 113° |
| 2026-05-07 22:13 | 30.15386 | -46.84675 | 35166 ft | 496 kts | 113° |
| 2026-05-07 22:13 | 30.13241 | -46.77101 | 35171 ft | 497 kts | 113° |
| 2026-05-07 22:14 | 30.11091 | -46.69523 | 35165 ft | 496 kts | 113° |
| 2026-05-07 22:14 | 30.08920 | -46.61893 | 35168 ft | 496 kts | 113° |
| 2026-05-07 22:15 | 30.06758 | -46.54308 | 35173 ft | 497 kts | 113° |
| 2026-05-07 22:15 | 30.04584 | -46.46712 | 35177 ft | 498 kts | 113° |
| 2026-05-07 22:16 | 30.02410 | -46.39120 | 35171 ft | 499 kts | 113° |
| 2026-05-07 22:16 | 30.00230 | -46.31536 | 35160 ft | 498 kts | 114° |
| 2026-05-07 22:17 | 29.98036 | -46.23918 | 35167 ft | 499 kts | 114° |
| 2026-05-07 22:17 | 29.95849 | -46.16341 | 35171 ft | 498 kts | 114° |
| 2026-05-07 22:18 | 29.92550 | -46.04951 | 35165 ft | 498 kts | 114° |
| 2026-05-07 22:19 | 29.90331 | -45.97306 | 35169 ft | 499 kts | 114° |
| 2026-05-07 22:19 | 29.88126 | -45.89738 | 35182 ft | 500 kts | 114° |
| 2026-05-07 22:20 | 29.85903 | -45.82125 | 35178 ft | 499 kts | 114° |
| 2026-05-07 22:20 | 29.83688 | -45.74552 | 35176 ft | 500 kts | 114° |
| 2026-05-07 22:21 | 29.81451 | -45.66923 | 35177 ft | 501 kts | 114° |
| 2026-05-07 22:21 | 29.79217 | -45.59323 | 35176 ft | 501 kts | 114° |
| 2026-05-07 22:22 | 29.76977 | -45.51723 | 35183 ft | 502 kts | 114° |
| 2026-05-07 22:22 | 29.74738 | -45.44142 | 35191 ft | 502 kts | 114° |
| 2026-05-07 22:23 | 29.72475 | -45.36499 | 35192 ft | 502 kts | 114° |
| 2026-05-07 22:23 | 29.70209 | -45.28862 | 35178 ft | 502 kts | 114° |
| 2026-05-07 22:24 | 29.67946 | -45.21255 | 35180 ft | 503 kts | 114° |
| 2026-05-07 22:24 | 29.65688 | -45.13683 | 35180 ft | 502 kts | 114° |
| 2026-05-07 22:25 | 29.63405 | -45.06046 | 35179 ft | 504 kts | 114° |
| 2026-05-07 22:25 | 29.61113 | -44.98401 | 35180 ft | 505 kts | 114° |
| 2026-05-07 22:26 | 29.58833 | -44.90808 | 35179 ft | 504 kts | 115° |
| 2026-05-07 22:26 | 29.56523 | -44.83134 | 35183 ft | 505 kts | 114° |
| 2026-05-07 22:27 | 29.54218 | -44.75495 | 35181 ft | 505 kts | 114° |
| 2026-05-07 22:27 | 29.51934 | -44.67941 | 35179 ft | 503 kts | 114° |
| 2026-05-07 22:28 | 29.49594 | -44.60228 | 35182 ft | 505 kts | 114° |
| 2026-05-07 22:28 | 29.47292 | -44.52650 | 35188 ft | 506 kts | 114° |
| 2026-05-07 22:29 | 29.44961 | -44.44994 | 35192 ft | 506 kts | 114° |
| 2026-05-07 22:29 | 29.42627 | -44.37352 | 35192 ft | 506 kts | 114° |
| 2026-05-07 22:30 | 29.40299 | -44.29744 | 35179 ft | 505 kts | 115° |
| 2026-05-07 22:30 | 29.37974 | -44.22164 | 35192 ft | 507 kts | 115° |
| 2026-05-07 22:31 | 29.35613 | -44.14482 | 35191 ft | 506 kts | 115° |
| 2026-05-07 22:31 | 29.33276 | -44.06901 | 35196 ft | 506 kts | 115° |
| 2026-05-07 22:32 | 29.30924 | -43.99284 | 35199 ft | 506 kts | 115° |
| 2026-05-07 22:32 | 29.28553 | -43.91624 | 35199 ft | 507 kts | 115° |
| 2026-05-07 22:33 | 29.26187 | -43.83997 | 35200 ft | 506 kts | 115° |
| 2026-05-07 22:33 | 29.23835 | -43.76437 | 35201 ft | 507 kts | 114° |
| 2026-05-07 22:34 | 29.21461 | -43.68818 | 35200 ft | 507 kts | 115° |
| 2026-05-07 22:34 | 29.19074 | -43.61176 | 35196 ft | 508 kts | 115° |
| 2026-05-07 22:35 | 29.16690 | -43.53563 | 35198 ft | 508 kts | 115° |
| 2026-05-07 22:35 | 29.14294 | -43.45927 | 35204 ft | 508 kts | 115° |
| 2026-05-07 22:36 | 29.11891 | -43.38286 | 35200 ft | 508 kts | 115° |
| 2026-05-07 22:36 | 29.09496 | -43.30688 | 35181 ft | 508 kts | 115° |
| 2026-05-07 22:37 | 29.07103 | -43.23119 | 35186 ft | 508 kts | 115° |
| 2026-05-07 22:37 | 29.04685 | -43.15481 | 35185 ft | 508 kts | 115° |
| 2026-05-07 22:38 | 29.02264 | -43.07860 | 35188 ft | 512 kts | 115° |
| 2026-05-07 22:38 | 28.99845 | -43.00251 | 35191 ft | 516 kts | 115° |
| 2026-05-07 22:39 | 28.97396 | -42.92569 | 35191 ft | 515 kts | 115° |
| 2026-05-07 22:39 | 28.94942 | -42.84889 | 35193 ft | 514 kts | 115° |
| 2026-05-07 22:40 | 28.92486 | -42.77217 | 35196 ft | 515 kts | 115° |
| 2026-05-07 22:40 | 28.90032 | -42.69569 | 35193 ft | 514 kts | 115° |
| 2026-05-07 22:41 | 28.87575 | -42.61939 | 35196 ft | 515 kts | 115° |
| 2026-05-07 22:41 | 28.85102 | -42.54261 | 35196 ft | 515 kts | 115° |
| 2026-05-07 22:42 | 28.82628 | -42.46610 | 35305 ft | 517 kts | 115° |
| 2026-05-07 22:42 | 28.81399 | -42.42808 | 35506 ft | 516 kts | 115° |
| 2026-05-07 22:42 | 28.80156 | -42.38972 | 35692 ft | 515 kts | 115° |
| 2026-05-07 22:42 | 28.78930 | -42.35195 | 35857 ft | 515 kts | 115° |
| 2026-05-07 22:43 | 28.77682 | -42.31353 | 36009 ft | 515 kts | 115° |
| 2026-05-07 22:43 | 28.76421 | -42.27471 | 36170 ft | 514 kts | 115° |
| 2026-05-07 22:43 | 28.75198 | -42.23713 | 36244 ft | 516 kts | 115° |
| 2026-05-07 22:43 | 28.73936 | -42.19839 | 36391 ft | 515 kts | 115° |
| 2026-05-07 22:44 | 28.72684 | -42.16002 | 36527 ft | 515 kts | 115° |
| 2026-05-07 22:44 | 28.70197 | -42.08390 | 36685 ft | 516 kts | 115° |
| 2026-05-07 22:44 | 28.68956 | -42.04597 | 36835 ft | 515 kts | 115° |
| 2026-05-07 22:45 | 28.67707 | -42.00782 | 36934 ft | 516 kts | 115° |
| 2026-05-07 22:45 | 28.65204 | -41.93157 | 37117 ft | 516 kts | 115° |
| 2026-05-07 22:46 | 28.62687 | -41.85505 | 37176 ft | 515 kts | 115° |
| 2026-05-07 22:46 | 28.60185 | -41.77909 | 37198 ft | 515 kts | 115° |
| 2026-05-07 22:47 | 28.57685 | -41.70345 | 37199 ft | 516 kts | 115° |
| 2026-05-07 22:47 | 28.55156 | -41.62704 | 37199 ft | 516 kts | 115° |
| 2026-05-07 22:48 | 28.52615 | -41.55040 | 37199 ft | 515 kts | 115° |
| 2026-05-07 22:48 | 28.50113 | -41.47516 | 37202 ft | 516 kts | 115° |
| 2026-05-07 22:49 | 28.47586 | -41.39930 | 37203 ft | 516 kts | 115° |
| 2026-05-07 22:49 | 28.45032 | -41.32279 | 37194 ft | 517 kts | 115° |
| 2026-05-07 22:50 | 28.42452 | -41.24571 | 37197 ft | 517 kts | 115° |
| 2026-05-07 22:50 | 28.39914 | -41.17001 | 37201 ft | 518 kts | 115° |
| 2026-05-07 22:51 | 28.37351 | -41.09374 | 37197 ft | 517 kts | 115° |
| 2026-05-07 22:51 | 28.34803 | -41.01807 | 37199 ft | 516 kts | 115° |
| 2026-05-07 22:52 | 28.32233 | -40.94192 | 37201 ft | 516 kts | 115° |
| 2026-05-07 22:52 | 28.29665 | -40.86600 | 37201 ft | 515 kts | 115° |
| 2026-05-07 22:53 | 28.27086 | -40.78990 | 37204 ft | 516 kts | 115° |
| 2026-05-07 22:53 | 28.24502 | -40.71378 | 37204 ft | 516 kts | 115° |
| 2026-05-07 22:54 | 28.21924 | -40.63806 | 37202 ft | 516 kts | 115° |
| 2026-05-07 22:54 | 28.19333 | -40.56208 | 37201 ft | 517 kts | 115° |
| 2026-05-07 22:55 | 28.16723 | -40.48571 | 37199 ft | 518 kts | 115° |
| 2026-05-07 22:55 | 28.14162 | -40.41095 | 37199 ft | 517 kts | 115° |
| 2026-05-07 22:56 | 28.11547 | -40.33474 | 37197 ft | 518 kts | 115° |
| 2026-05-07 22:56 | 28.08922 | -40.25840 | 37194 ft | 517 kts | 115° |
| 2026-05-07 22:57 | 28.06315 | -40.18277 | 37193 ft | 518 kts | 115° |
| 2026-05-07 22:57 | 28.03697 | -40.10696 | 37193 ft | 518 kts | 115° |
| 2026-05-07 22:58 | 28.01070 | -40.03106 | 37191 ft | 517 kts | 115° |
| 2026-05-07 22:58 | 27.97727 | -39.96045 | 37213 ft | 509 kts | 128° |
| 2026-05-07 22:59 | 27.93895 | -39.89321 | 37195 ft | 510 kts | 128° |
| 2026-05-07 22:59 | 27.90020 | -39.82542 | 37189 ft | 509 kts | 127° |
| 2026-05-07 23:00 | 27.86158 | -39.75800 | 37194 ft | 510 kts | 128° |
| 2026-05-07 23:00 | 27.82309 | -39.69092 | 37192 ft | 508 kts | 127° |
| 2026-05-07 23:01 | 27.78429 | -39.62337 | 37190 ft | 509 kts | 127° |
| 2026-05-07 23:01 | 27.74580 | -39.55649 | 37194 ft | 510 kts | 127° |
| 2026-05-07 23:02 | 27.70727 | -39.48963 | 37193 ft | 511 kts | 127° |
| 2026-05-07 23:02 | 27.66838 | -39.42227 | 37195 ft | 511 kts | 127° |
| 2026-05-07 23:03 | 27.62926 | -39.35461 | 37193 ft | 512 kts | 127° |
| 2026-05-07 23:03 | 27.59055 | -39.28773 | 37184 ft | 510 kts | 128° |
| 2026-05-07 23:04 | 27.55166 | -39.22067 | 37183 ft | 510 kts | 128° |
| 2026-05-07 23:04 | 27.51295 | -39.15403 | 37191 ft | 510 kts | 128° |
| 2026-05-07 23:05 | 27.47468 | -39.08825 | 37189 ft | 511 kts | 127° |
| 2026-05-07 23:05 | 27.43554 | -39.02103 | 37189 ft | 512 kts | 127° |
| 2026-05-07 23:06 | 27.39618 | -38.95359 | 37191 ft | 511 kts | 127° |
| 2026-05-07 23:06 | 27.35735 | -38.88714 | 37182 ft | 510 kts | 127° |
| 2026-05-07 23:07 | 27.31896 | -38.82153 | 37182 ft | 511 kts | 127° |
| 2026-05-07 23:07 | 27.27952 | -38.75423 | 37184 ft | 511 kts | 127° |
| 2026-05-07 23:08 | 27.24050 | -38.68776 | 37184 ft | 512 kts | 127° |
| 2026-05-07 23:08 | 27.20139 | -38.62124 | 37186 ft | 512 kts | 127° |
| 2026-05-07 23:09 | 27.16179 | -38.55398 | 37184 ft | 512 kts | 127° |
| 2026-05-07 23:09 | 27.12262 | -38.48754 | 37184 ft | 512 kts | 127° |
| 2026-05-07 23:10 | 27.08331 | -38.42098 | 37186 ft | 512 kts | 127° |
| 2026-05-07 23:10 | 27.04366 | -38.35393 | 37180 ft | 511 kts | 127° |
| 2026-05-07 23:11 | 27.00420 | -38.28733 | 37165 ft | 511 kts | 128° |
| 2026-05-07 23:11 | 26.96497 | -38.22120 | 37165 ft | 511 kts | 128° |
| 2026-05-07 23:12 | 26.92515 | -38.15418 | 37159 ft | 512 kts | 127° |
| 2026-05-07 23:12 | 26.88561 | -38.08770 | 37166 ft | 512 kts | 127° |
| 2026-05-07 23:13 | 26.84621 | -38.02156 | 37173 ft | 511 kts | 127° |
| 2026-05-07 23:13 | 26.80652 | -37.95508 | 37174 ft | 511 kts | 127° |
| 2026-05-07 23:14 | 26.76682 | -37.88865 | 37170 ft | 512 kts | 127° |
| 2026-05-07 23:14 | 26.72734 | -37.82269 | 37174 ft | 512 kts | 127° |
| 2026-05-07 23:15 | 26.68736 | -37.75596 | 37174 ft | 513 kts | 127° |
| 2026-05-07 23:15 | 26.64769 | -37.68989 | 37179 ft | 514 kts | 127° |
| 2026-05-07 23:16 | 26.60783 | -37.62358 | 37176 ft | 514 kts | 127° |
| 2026-05-07 23:16 | 26.56775 | -37.55700 | 37179 ft | 514 kts | 127° |
| 2026-05-07 23:17 | 26.52762 | -37.49045 | 37176 ft | 513 kts | 127° |
| 2026-05-07 23:17 | 26.48846 | -37.42561 | 37172 ft | 514 kts | 127° |
| 2026-05-07 23:18 | 26.44946 | -37.36109 | 37174 ft | 515 kts | 127° |
| 2026-05-07 23:18 | 26.40945 | -37.29502 | 37162 ft | 514 kts | 127° |
| 2026-05-07 23:19 | 26.36946 | -37.22909 | 37166 ft | 515 kts | 127° |
| 2026-05-07 23:19 | 26.32987 | -37.16389 | 37168 ft | 515 kts | 127° |
| 2026-05-07 23:20 | 26.28971 | -37.09785 | 37171 ft | 514 kts | 127° |
| 2026-05-07 23:20 | 26.24926 | -37.03145 | 37175 ft | 515 kts | 127° |
| 2026-05-07 23:21 | 26.20913 | -36.96564 | 37174 ft | 515 kts | 127° |
| 2026-05-07 23:21 | 26.16880 | -36.89961 | 37171 ft | 515 kts | 127° |
| 2026-05-07 23:22 | 26.12806 | -36.83300 | 37174 ft | 515 kts | 127° |
| 2026-05-07 23:22 | 26.08774 | -36.76720 | 37172 ft | 515 kts | 127° |
| 2026-05-07 23:23 | 26.04748 | -36.70157 | 37171 ft | 516 kts | 127° |
| 2026-05-07 23:23 | 26.00663 | -36.63508 | 37173 ft | 516 kts | 127° |
| 2026-05-07 23:24 | 25.96608 | -36.56917 | 37179 ft | 517 kts | 127° |
| 2026-05-07 23:24 | 25.92537 | -36.50306 | 37183 ft | 517 kts | 127° |
| 2026-05-07 23:25 | 25.88458 | -36.43697 | 37177 ft | 516 kts | 127° |
| 2026-05-07 23:25 | 25.84393 | -36.37116 | 37179 ft | 516 kts | 127° |
| 2026-05-07 23:26 | 25.80302 | -36.30508 | 37156 ft | 516 kts | 127° |
| 2026-05-07 23:26 | 25.76229 | -36.23931 | 37162 ft | 515 kts | 127° |
| 2026-05-07 23:27 | 25.70119 | -36.14086 | 37161 ft | 515 kts | 127° |
| 2026-05-07 23:27 | 25.66029 | -36.07508 | 37162 ft | 516 kts | 127° |
| 2026-05-07 23:28 | 25.61958 | -36.00969 | 37162 ft | 515 kts | 127° |
| 2026-05-07 23:28 | 25.57882 | -35.94434 | 37169 ft | 515 kts | 127° |
| 2026-05-07 23:29 | 25.53792 | -35.87883 | 37166 ft | 516 kts | 127° |
| 2026-05-07 23:29 | 25.49680 | -35.81306 | 37165 ft | 517 kts | 127° |
| 2026-05-07 23:30 | 25.45581 | -35.74760 | 37164 ft | 516 kts | 127° |
| 2026-05-07 23:30 | 25.41477 | -35.68214 | 37159 ft | 515 kts | 127° |
| 2026-05-07 23:31 | 25.37384 | -35.61697 | 37162 ft | 516 kts | 127° |
| 2026-05-07 23:31 | 25.33267 | -35.55147 | 37165 ft | 516 kts | 127° |
| 2026-05-07 23:32 | 25.29141 | -35.48596 | 37165 ft | 516 kts | 127° |
| 2026-05-07 23:32 | 25.25034 | -35.42081 | 37164 ft | 517 kts | 127° |
| 2026-05-07 23:33 | 25.20891 | -35.35518 | 37164 ft | 517 kts | 127° |
| 2026-05-07 23:33 | 25.16783 | -35.29021 | 37152 ft | 516 kts | 127° |
| 2026-05-07 23:34 | 25.12639 | -35.22474 | 37148 ft | 516 kts | 127° |
| 2026-05-07 23:34 | 25.08493 | -35.15935 | 37151 ft | 516 kts | 127° |
| 2026-05-07 23:35 | 25.04396 | -35.09481 | 37152 ft | 516 kts | 127° |
| 2026-05-07 23:35 | 25.00243 | -35.02948 | 37156 ft | 516 kts | 127° |
| 2026-05-07 23:36 | 24.96098 | -34.96436 | 37152 ft | 517 kts | 127° |
| 2026-05-07 23:36 | 24.91962 | -34.89947 | 37152 ft | 515 kts | 127° |
| 2026-05-07 23:37 | 24.87821 | -34.83460 | 37146 ft | 514 kts | 127° |
| 2026-05-07 23:37 | 24.83695 | -34.77004 | 37151 ft | 516 kts | 127° |
| 2026-05-07 23:38 | 24.79539 | -34.70512 | 37149 ft | 516 kts | 127° |
| 2026-05-07 23:38 | 24.75377 | -34.64015 | 37144 ft | 516 kts | 127° |
| 2026-05-07 23:39 | 24.71233 | -34.57557 | 37149 ft | 517 kts | 127° |
| 2026-05-07 23:39 | 24.67073 | -34.51083 | 37148 ft | 516 kts | 127° |
| 2026-05-07 23:40 | 24.62898 | -34.44597 | 37149 ft | 516 kts | 127° |
| 2026-05-07 23:40 | 24.58752 | -34.38161 | 37147 ft | 516 kts | 127° |
| 2026-05-07 23:41 | 24.54584 | -34.31699 | 37131 ft | 516 kts | 127° |
| 2026-05-07 23:41 | 24.50426 | -34.25263 | 37133 ft | 516 kts | 127° |
| 2026-05-07 23:42 | 24.46251 | -34.18807 | 37139 ft | 516 kts | 127° |
| 2026-05-07 23:42 | 24.42077 | -34.12364 | 37137 ft | 516 kts | 127° |
| 2026-05-07 23:43 | 24.37874 | -34.05884 | 37137 ft | 516 kts | 127° |
| 2026-05-07 23:43 | 24.33690 | -33.99439 | 37139 ft | 516 kts | 127° |
| 2026-05-07 23:44 | 24.29529 | -33.93041 | 37136 ft | 516 kts | 127° |
| 2026-05-07 23:44 | 24.25336 | -33.86602 | 37143 ft | 516 kts | 127° |
| 2026-05-07 23:45 | 24.21136 | -33.80158 | 37138 ft | 515 kts | 127° |
| 2026-05-07 23:45 | 24.16959 | -33.73761 | 37140 ft | 516 kts | 127° |
| 2026-05-07 23:46 | 24.12763 | -33.67342 | 37134 ft | 515 kts | 127° |
| 2026-05-07 23:46 | 24.08553 | -33.60909 | 37130 ft | 516 kts | 127° |
| 2026-05-07 23:47 | 24.04388 | -33.54553 | 37134 ft | 516 kts | 127° |
| 2026-05-07 23:47 | 24.00172 | -33.48126 | 37134 ft | 516 kts | 127° |
| 2026-05-07 23:48 | 23.95964 | -33.41723 | 37124 ft | 516 kts | 127° |
| 2026-05-07 23:48 | 23.91777 | -33.35360 | 37123 ft | 516 kts | 127° |
| 2026-05-07 23:49 | 23.87569 | -33.28972 | 37109 ft | 515 kts | 127° |
| 2026-05-07 23:49 | 23.83322 | -33.22533 | 37108 ft | 515 kts | 127° |
| 2026-05-07 23:50 | 23.79135 | -33.16192 | 37118 ft | 515 kts | 127° |
| 2026-05-07 23:50 | 23.74930 | -33.09832 | 37117 ft | 515 kts | 127° |
| 2026-05-07 23:51 | 23.70735 | -33.03495 | 37105 ft | 514 kts | 127° |
| 2026-05-07 23:51 | 23.66517 | -32.97132 | 37102 ft | 514 kts | 127° |
| 2026-05-07 23:52 | 23.62311 | -32.90795 | 37109 ft | 514 kts | 127° |
| 2026-05-07 23:52 | 23.58094 | -32.84452 | 37117 ft | 515 kts | 127° |
| 2026-05-07 23:53 | 23.53893 | -32.78137 | 37119 ft | 515 kts | 127° |
| 2026-05-07 23:53 | 23.49648 | -32.71765 | 37118 ft | 515 kts | 127° |
| 2026-05-07 23:54 | 23.45439 | -32.65454 | 37112 ft | 515 kts | 126° |
| 2026-05-07 23:54 | 23.41203 | -32.59112 | 37111 ft | 513 kts | 127° |
| 2026-05-07 23:55 | 23.36996 | -32.52821 | 37113 ft | 512 kts | 127° |
| 2026-05-07 23:55 | 23.32760 | -32.46495 | 37118 ft | 513 kts | 127° |
| 2026-05-07 23:56 | 23.28570 | -32.40245 | 37120 ft | 513 kts | 126° |
| 2026-05-07 23:56 | 23.24321 | -32.33915 | 37119 ft | 513 kts | 127° |
| 2026-05-07 23:57 | 23.20102 | -32.27635 | 37119 ft | 513 kts | 127° |
| 2026-05-07 23:57 | 23.15875 | -32.21353 | 37117 ft | 513 kts | 127° |
| 2026-05-07 23:58 | 23.11619 | -32.15036 | 37112 ft | 512 kts | 127° |
| 2026-05-07 23:58 | 23.07398 | -32.08778 | 37113 ft | 512 kts | 127° |
| 2026-05-07 23:59 | 23.03198 | -32.02562 | 37118 ft | 512 kts | 127° |
| 2026-05-07 23:59 | 22.98951 | -31.96278 | 37125 ft | 512 kts | 126° |
| 2026-05-08 00:00 | 22.94722 | -31.90029 | 37133 ft | 513 kts | 127° |
| 2026-05-08 00:00 | 22.90463 | -31.83745 | 37133 ft | 511 kts | 127° |
| 2026-05-08 00:01 | 22.86286 | -31.77591 | 37124 ft | 510 kts | 127° |
| 2026-05-08 00:01 | 22.82072 | -31.71389 | 37127 ft | 511 kts | 126° |
| 2026-05-08 00:02 | 22.77874 | -31.65216 | 37129 ft | 511 kts | 127° |
| 2026-05-08 00:02 | 22.73660 | -31.59026 | 37129 ft | 510 kts | 127° |
| 2026-05-08 00:03 | 22.69406 | -31.52788 | 37126 ft | 511 kts | 127° |
| 2026-05-08 00:03 | 22.65157 | -31.46562 | 37131 ft | 511 kts | 127° |
| 2026-05-08 00:04 | 22.60939 | -31.40391 | 37133 ft | 510 kts | 127° |
| 2026-05-08 00:04 | 22.56675 | -31.34160 | 37126 ft | 510 kts | 127° |
| 2026-05-08 00:05 | 22.52456 | -31.28001 | 37122 ft | 509 kts | 127° |
| 2026-05-08 00:05 | 22.48214 | -31.21815 | 37115 ft | 510 kts | 127° |
| 2026-05-08 00:06 | 22.43947 | -31.15601 | 37118 ft | 509 kts | 127° |
| 2026-05-08 00:06 | 22.39728 | -31.09463 | 37117 ft | 509 kts | 127° |
| 2026-05-08 00:07 | 22.35476 | -31.03286 | 37108 ft | 509 kts | 127° |
| 2026-05-08 00:07 | 22.31226 | -30.97117 | 37100 ft | 508 kts | 127° |
| 2026-05-08 00:08 | 22.27000 | -30.90991 | 37094 ft | 508 kts | 127° |
| 2026-05-08 00:08 | 22.22778 | -30.84876 | 37093 ft | 508 kts | 127° |
| 2026-05-08 00:09 | 22.18496 | -30.78684 | 37093 ft | 509 kts | 127° |
| 2026-05-08 00:09 | 22.14249 | -30.72549 | 37091 ft | 510 kts | 127° |
| 2026-05-08 00:10 | 22.10003 | -30.66422 | 37091 ft | 509 kts | 127° |
| 2026-05-08 00:10 | 22.05722 | -30.60251 | 37092 ft | 509 kts | 127° |
| 2026-05-08 00:11 | 22.01479 | -30.54143 | 37089 ft | 509 kts | 127° |
| 2026-05-08 00:11 | 21.97216 | -30.48011 | 37094 ft | 510 kts | 127° |
| 2026-05-08 00:12 | 21.92946 | -30.41878 | 37094 ft | 509 kts | 126° |
| 2026-05-08 00:12 | 21.88686 | -30.35765 | 37087 ft | 508 kts | 126° |
| 2026-05-08 00:13 | 21.84417 | -30.29647 | 37083 ft | 508 kts | 127° |
| 2026-05-08 00:13 | 21.80162 | -30.23555 | 37081 ft | 508 kts | 127° |
| 2026-05-08 00:14 | 21.75899 | -30.17459 | 37080 ft | 508 kts | 127° |
| 2026-05-08 00:14 | 21.71634 | -30.11365 | 37080 ft | 509 kts | 127° |
| 2026-05-08 00:15 | 21.67353 | -30.05258 | 37082 ft | 509 kts | 127° |
| 2026-05-08 00:15 | 21.63073 | -29.99158 | 37081 ft | 509 kts | 127° |
| 2026-05-08 00:16 | 21.58786 | -29.93055 | 37084 ft | 509 kts | 127° |
| 2026-05-08 00:16 | 21.54487 | -29.86942 | 37084 ft | 509 kts | 127° |
| 2026-05-08 00:17 | 21.50213 | -29.80871 | 37083 ft | 507 kts | 127° |
| 2026-05-08 00:17 | 21.46093 | -29.74684 | 37084 ft | 507 kts | 124° |
| 2026-05-08 00:18 | 21.41981 | -29.68447 | 37082 ft | 507 kts | 125° |
| 2026-05-08 00:18 | 21.37893 | -29.62256 | 37080 ft | 506 kts | 124° |
| 2026-05-08 00:19 | 21.33807 | -29.56078 | 37075 ft | 507 kts | 125° |
| 2026-05-08 00:19 | 21.29692 | -29.49860 | 37078 ft | 507 kts | 125° |
| 2026-05-08 00:20 | 21.25588 | -29.43665 | 37077 ft | 506 kts | 124° |
| 2026-05-08 00:20 | 21.21512 | -29.37523 | 37080 ft | 507 kts | 124° |
| 2026-05-08 00:21 | 21.17397 | -29.31327 | 37073 ft | 506 kts | 125° |
| 2026-05-08 00:21 | 21.13290 | -29.25148 | 37070 ft | 505 kts | 125° |
| 2026-05-08 00:22 | 21.09210 | -29.19019 | 37077 ft | 504 kts | 125° |
| 2026-05-08 00:22 | 21.05112 | -29.12869 | 37080 ft | 504 kts | 125° |
| 2026-05-08 00:23 | 21.01010 | -29.06719 | 37076 ft | 506 kts | 125° |
| 2026-05-08 00:23 | 20.96906 | -29.00574 | 37068 ft | 507 kts | 125° |
| 2026-05-08 00:24 | 20.92792 | -28.94419 | 37067 ft | 506 kts | 125° |
| 2026-05-08 00:24 | 20.88678 | -28.88273 | 37066 ft | 505 kts | 125° |
| 2026-05-08 00:25 | 20.84593 | -28.82175 | 37060 ft | 505 kts | 125° |
| 2026-05-08 00:25 | 20.80481 | -28.76045 | 37061 ft | 504 kts | 125° |
| 2026-05-08 00:26 | 20.76362 | -28.69910 | 37060 ft | 504 kts | 125° |
| 2026-05-08 00:26 | 20.72255 | -28.63798 | 37063 ft | 504 kts | 125° |
| 2026-05-08 00:27 | 20.68139 | -28.57681 | 37064 ft | 504 kts | 125° |
| 2026-05-08 00:27 | 20.64026 | -28.51574 | 37063 ft | 504 kts | 125° |
| 2026-05-08 00:28 | 20.59900 | -28.45457 | 37063 ft | 504 kts | 125° |
| 2026-05-08 00:28 | 20.55787 | -28.39364 | 37064 ft | 504 kts | 125° |
| 2026-05-08 00:29 | 20.51658 | -28.33252 | 37056 ft | 503 kts | 125° |
| 2026-05-08 00:29 | 20.47582 | -28.27224 | 37056 ft | 502 kts | 125° |
| 2026-05-08 00:30 | 20.43470 | -28.21152 | 37056 ft | 503 kts | 125° |
| 2026-05-08 00:30 | 20.39324 | -28.15035 | 37057 ft | 504 kts | 125° |
| 2026-05-08 00:31 | 20.35202 | -28.08960 | 37055 ft | 503 kts | 125° |
| 2026-05-08 00:31 | 20.31080 | -28.02891 | 37053 ft | 502 kts | 125° |
| 2026-05-08 00:32 | 20.26963 | -27.96837 | 37053 ft | 502 kts | 125° |
| 2026-05-08 00:32 | 20.22861 | -27.90810 | 37054 ft | 502 kts | 125° |
| 2026-05-08 00:33 | 20.18745 | -27.84770 | 37054 ft | 502 kts | 125° |
| 2026-05-08 00:33 | 20.14609 | -27.78705 | 37053 ft | 500 kts | 125° |
| 2026-05-08 00:34 | 20.10513 | -27.72706 | 37056 ft | 501 kts | 125° |
| 2026-05-08 00:34 | 20.06411 | -27.66704 | 37056 ft | 501 kts | 125° |
| 2026-05-08 00:35 | 20.02294 | -27.60686 | 37054 ft | 501 kts | 125° |
| 2026-05-08 00:35 | 19.98184 | -27.54685 | 37051 ft | 500 kts | 125° |
| 2026-05-08 00:36 | 19.94067 | -27.48680 | 37052 ft | 500 kts | 125° |
| 2026-05-08 00:36 | 19.89923 | -27.42641 | 37052 ft | 501 kts | 125° |
| 2026-05-08 00:37 | 19.85796 | -27.36633 | 37050 ft | 500 kts | 125° |
| 2026-05-08 00:38 | 19.79614 | -27.27645 | 37037 ft | 500 kts | 126° |
| 2026-05-08 00:38 | 19.75500 | -27.21673 | 37032 ft | 499 kts | 126° |
| 2026-05-08 00:39 | 19.71375 | -27.15687 | 37029 ft | 499 kts | 126° |
| 2026-05-08 00:39 | 19.67244 | -27.09701 | 37032 ft | 498 kts | 126° |
| 2026-05-08 00:40 | 19.63134 | -27.03751 | 37030 ft | 498 kts | 125° |
| 2026-05-08 00:40 | 19.59002 | -26.97774 | 37026 ft | 498 kts | 125° |
| 2026-05-08 00:41 | 19.54883 | -26.91822 | 37025 ft | 499 kts | 126° |
| 2026-05-08 00:41 | 19.50767 | -26.85882 | 37026 ft | 499 kts | 125° |
| 2026-05-08 00:42 | 19.46641 | -26.79930 | 37028 ft | 498 kts | 125° |
| 2026-05-08 00:42 | 19.42524 | -26.74001 | 37028 ft | 497 kts | 125° |
| 2026-05-08 00:43 | 19.38392 | -26.68053 | 37030 ft | 497 kts | 125° |
| 2026-05-08 00:43 | 19.34275 | -26.62132 | 37031 ft | 497 kts | 125° |
| 2026-05-08 00:44 | 19.30145 | -26.56200 | 37030 ft | 497 kts | 125° |
| 2026-05-08 00:44 | 19.26034 | -26.50300 | 37031 ft | 496 kts | 125° |
| 2026-05-08 00:45 | 19.21883 | -26.44349 | 37032 ft | 496 kts | 125° |
| 2026-05-08 00:45 | 19.17784 | -26.38478 | 37032 ft | 495 kts | 125° |
| 2026-05-08 00:46 | 19.13659 | -26.32577 | 37028 ft | 495 kts | 125° |
| 2026-05-08 00:46 | 19.09544 | -26.26694 | 37029 ft | 494 kts | 125° |
| 2026-05-08 00:47 | 19.05460 | -26.20861 | 37031 ft | 495 kts | 125° |
| 2026-05-08 00:47 | 19.01323 | -26.14957 | 37031 ft | 496 kts | 125° |
| 2026-05-08 00:48 | 18.97165 | -26.09029 | 37030 ft | 495 kts | 125° |
| 2026-05-08 00:48 | 18.93078 | -26.03165 | 37030 ft | 495 kts | 125° |
| 2026-05-08 00:49 | 18.89050 | -25.97348 | 37026 ft | 494 kts | 125° |
| 2026-05-08 00:49 | 18.84972 | -25.91464 | 37027 ft | 495 kts | 125° |
| 2026-05-08 00:50 | 18.80890 | -25.85579 | 37027 ft | 494 kts | 125° |
| 2026-05-08 00:50 | 18.76820 | -25.79719 | 37026 ft | 493 kts | 125° |
| 2026-05-08 00:51 | 18.72734 | -25.73839 | 37027 ft | 493 kts | 125° |
| 2026-05-08 00:51 | 18.68671 | -25.67999 | 37028 ft | 494 kts | 125° |
| 2026-05-08 00:52 | 18.64589 | -25.62136 | 37028 ft | 494 kts | 125° |
| 2026-05-08 00:52 | 18.60467 | -25.56223 | 37028 ft | 493 kts | 125° |
| 2026-05-08 00:53 | 18.56405 | -25.50400 | 37029 ft | 492 kts | 126° |
| 2026-05-08 00:53 | 18.52327 | -25.44560 | 37030 ft | 492 kts | 126° |
| 2026-05-08 00:54 | 18.48247 | -25.38722 | 37029 ft | 492 kts | 126° |
| 2026-05-08 00:54 | 18.44167 | -25.32890 | 37028 ft | 492 kts | 126° |
| 2026-05-08 00:55 | 18.40093 | -25.27071 | 37029 ft | 492 kts | 126° |
| 2026-05-08 00:55 | 18.36007 | -25.21240 | 37029 ft | 492 kts | 126° |
| 2026-05-08 00:56 | 18.31912 | -25.15402 | 37028 ft | 491 kts | 126° |
| 2026-05-08 00:56 | 18.27831 | -25.09589 | 37028 ft | 491 kts | 126° |
| 2026-05-08 00:57 | 18.23762 | -25.03799 | 37027 ft | 491 kts | 126° |
| 2026-05-08 00:57 | 18.19669 | -24.97979 | 37029 ft | 492 kts | 126° |
| 2026-05-08 00:58 | 18.15579 | -24.92170 | 37030 ft | 491 kts | 126° |
| 2026-05-08 00:58 | 18.11474 | -24.86345 | 37028 ft | 491 kts | 126° |
| 2026-05-08 00:59 | 18.07403 | -24.80570 | 37017 ft | 490 kts | 126° |
| 2026-05-08 00:59 | 18.03300 | -24.74758 | 37012 ft | 490 kts | 126° |
| 2026-05-08 01:00 | 17.99213 | -24.68973 | 37011 ft | 490 kts | 126° |
| 2026-05-08 01:00 | 17.95146 | -24.63222 | 37008 ft | 492 kts | 127° |
| 2026-05-08 01:01 | 17.91005 | -24.57371 | 37003 ft | 493 kts | 127° |
| 2026-05-08 01:01 | 17.86906 | -24.51584 | 37004 ft | 493 kts | 127° |
| 2026-05-08 01:02 | 17.82813 | -24.45812 | 37007 ft | 493 kts | 127° |
| 2026-05-08 01:02 | 17.78692 | -24.40004 | 37003 ft | 492 kts | 127° |
| 2026-05-08 01:03 | 17.74582 | -24.34216 | 37007 ft | 494 kts | 127° |
| 2026-05-08 01:03 | 17.70436 | -24.28402 | 37008 ft | 494 kts | 128° |
| 2026-05-08 01:04 | 17.66251 | -24.22586 | 37003 ft | 494 kts | 128° |
| 2026-05-08 01:04 | 17.62105 | -24.16827 | 37000 ft | 495 kts | 128° |
| 2026-05-08 01:05 | 17.57931 | -24.11031 | 36999 ft | 495 kts | 128° |
| 2026-05-08 01:05 | 17.53725 | -24.05200 | 37001 ft | 496 kts | 128° |
| 2026-05-08 01:06 | 17.49569 | -23.99443 | 37007 ft | 497 kts | 128° |
| 2026-05-08 01:06 | 17.45383 | -23.93646 | 37009 ft | 496 kts | 128° |
| 2026-05-08 01:07 | 17.41166 | -23.87813 | 37009 ft | 497 kts | 128° |
| 2026-05-08 01:07 | 17.36996 | -23.82050 | 37006 ft | 499 kts | 129° |
| 2026-05-08 01:08 | 17.32765 | -23.76205 | 37002 ft | 499 kts | 129° |
| 2026-05-08 01:08 | 17.28548 | -23.70389 | 37006 ft | 498 kts | 129° |
| 2026-05-08 01:09 | 17.24334 | -23.64581 | 37003 ft | 499 kts | 129° |
| 2026-05-08 01:09 | 17.20093 | -23.58740 | 37007 ft | 500 kts | 129° |
| 2026-05-08 01:10 | 17.15861 | -23.52916 | 37004 ft | 500 kts | 129° |
| 2026-05-08 01:10 | 17.11636 | -23.47104 | 37005 ft | 503 kts | 130° |
| 2026-05-08 01:11 | 17.07379 | -23.41260 | 37008 ft | 503 kts | 130° |
| 2026-05-08 01:11 | 17.03120 | -23.35410 | 37009 ft | 504 kts | 130° |
| 2026-05-08 01:11 | 17.01009 | -23.32515 | 37168 ft | 502 kts | 130° |
| 2026-05-08 01:12 | 16.98849 | -23.29553 | 37289 ft | 502 kts | 131° |
| 2026-05-08 01:12 | 16.94625 | -23.23761 | 37438 ft | 503 kts | 131° |
| 2026-05-08 01:13 | 16.90321 | -23.17871 | 37650 ft | 503 kts | 131° |
| 2026-05-08 01:13 | 16.88204 | -23.14974 | 37784 ft | 502 kts | 131° |
| 2026-05-08 01:13 | 16.86086 | -23.12078 | 37920 ft | 501 kts | 131° |
| 2026-05-08 01:14 | 16.81842 | -23.06276 | 38017 ft | 503 kts | 132° |
| 2026-05-08 01:14 | 16.77562 | -23.00433 | 38143 ft | 504 kts | 132° |
| 2026-05-08 01:14 | 16.75451 | -22.97551 | 38282 ft | 502 kts | 132° |
| 2026-05-08 01:15 | 16.73464 | -22.94477 | 38299 ft | 509 kts | 122° |
| 2026-05-08 01:15 | 16.72056 | -22.91008 | 38326 ft | 515 kts | 111° |
| 2026-05-08 01:15 | 16.70960 | -22.87466 | 38378 ft | 516 kts | 112° |
| 2026-05-08 01:16 | 16.68546 | -22.80410 | 38521 ft | 515 kts | 113° |
| 2026-05-08 01:16 | 16.66093 | -22.73360 | 38629 ft | 516 kts | 114° |
| 2026-05-08 01:17 | 16.63627 | -22.66289 | 38779 ft | 516 kts | 114° |
| 2026-05-08 01:17 | 16.61164 | -22.59247 | 38909 ft | 516 kts | 114° |
| 2026-05-08 01:18 | 16.58684 | -22.52156 | 38969 ft | 518 kts | 114° |
| 2026-05-08 01:18 | 16.56221 | -22.45119 | 38987 ft | 518 kts | 114° |
| 2026-05-08 01:19 | 16.53723 | -22.37995 | 38986 ft | 518 kts | 114° |
| 2026-05-08 01:19 | 16.51252 | -22.30957 | 38964 ft | 517 kts | 114° |
| 2026-05-08 01:20 | 16.48763 | -22.23877 | 38970 ft | 518 kts | 115° |
| 2026-05-08 01:20 | 16.46265 | -22.16778 | 38981 ft | 518 kts | 115° |
| 2026-05-08 01:21 | 16.43768 | -22.09693 | 38977 ft | 519 kts | 115° |
| 2026-05-08 01:21 | 16.41279 | -22.02633 | 38974 ft | 518 kts | 115° |
| 2026-05-08 01:22 | 16.38772 | -21.95540 | 38974 ft | 519 kts | 115° |
| 2026-05-08 01:22 | 16.36270 | -21.88465 | 38972 ft | 519 kts | 115° |
| 2026-05-08 01:23 | 16.33768 | -21.81399 | 38974 ft | 519 kts | 115° |
| 2026-05-08 01:23 | 16.31236 | -21.74259 | 38974 ft | 519 kts | 115° |
| 2026-05-08 01:24 | 16.28732 | -21.67201 | 38973 ft | 520 kts | 115° |
| 2026-05-08 01:24 | 16.26207 | -21.60160 | 38974 ft | 520 kts | 116° |
| 2026-05-08 01:25 | 16.23638 | -21.52996 | 38973 ft | 520 kts | 116° |
| 2026-05-08 01:25 | 16.21103 | -21.45945 | 38978 ft | 519 kts | 116° |
| 2026-05-08 01:26 | 16.18575 | -21.38921 | 38985 ft | 520 kts | 115° |
| 2026-05-08 01:26 | 16.16012 | -21.31800 | 38962 ft | 520 kts | 116° |
| 2026-05-08 01:27 | 16.13471 | -21.24755 | 38956 ft | 518 kts | 116° |
| 2026-05-08 01:27 | 16.10912 | -21.17667 | 38951 ft | 520 kts | 116° |
| 2026-05-08 01:28 | 16.08355 | -21.10590 | 38951 ft | 519 kts | 116° |
| 2026-05-08 01:28 | 16.05809 | -21.03560 | 38949 ft | 517 kts | 116° |
| 2026-05-08 01:29 | 16.03266 | -20.96542 | 38946 ft | 519 kts | 116° |
| 2026-05-08 01:29 | 16.00701 | -20.89465 | 38937 ft | 518 kts | 116° |
| 2026-05-08 01:30 | 15.98148 | -20.82440 | 38940 ft | 520 kts | 116° |
| 2026-05-08 01:30 | 15.95574 | -20.75361 | 38946 ft | 522 kts | 116° |
| 2026-05-08 01:31 | 15.93003 | -20.68296 | 38948 ft | 522 kts | 116° |
| 2026-05-08 01:31 | 15.90417 | -20.61195 | 38949 ft | 520 kts | 116° |
| 2026-05-08 01:32 | 15.87856 | -20.54180 | 38954 ft | 520 kts | 116° |
| 2026-05-08 01:32 | 15.85260 | -20.47071 | 38950 ft | 520 kts | 116° |
| 2026-05-08 01:33 | 15.82683 | -20.40025 | 38956 ft | 520 kts | 116° |
| 2026-05-08 01:33 | 15.80122 | -20.33024 | 38947 ft | 520 kts | 116° |
| 2026-05-08 01:34 | 15.77543 | -20.25991 | 38944 ft | 519 kts | 116° |
| 2026-05-08 01:34 | 15.74952 | -20.18928 | 38943 ft | 518 kts | 116° |
| 2026-05-08 01:35 | 15.72393 | -20.11962 | 38944 ft | 517 kts | 116° |
| 2026-05-08 01:35 | 15.69801 | -20.04913 | 38943 ft | 520 kts | 116° |
| 2026-05-08 01:36 | 15.67212 | -19.97850 | 38943 ft | 523 kts | 116° |
| 2026-05-08 01:36 | 15.64676 | -19.90858 | 38940 ft | 524 kts | 116° |
| 2026-05-08 01:37 | 15.62099 | -19.83767 | 38934 ft | 525 kts | 116° |
| 2026-05-08 01:37 | 15.59521 | -19.76676 | 38936 ft | 525 kts | 116° |
| 2026-05-08 01:38 | 15.56941 | -19.69594 | 38934 ft | 526 kts | 116° |
| 2026-05-08 01:38 | 15.54383 | -19.62577 | 38934 ft | 527 kts | 116° |
| 2026-05-08 01:39 | 15.51774 | -19.55426 | 38939 ft | 527 kts | 116° |
| 2026-05-08 01:39 | 15.49187 | -19.48344 | 38943 ft | 527 kts | 116° |
| 2026-05-08 01:40 | 15.46587 | -19.41233 | 38944 ft | 527 kts | 115° |
| 2026-05-08 01:40 | 15.44048 | -19.34298 | 38940 ft | 527 kts | 116° |
| 2026-05-08 01:41 | 15.41448 | -19.27208 | 38930 ft | 527 kts | 116° |
| 2026-05-08 01:41 | 15.38869 | -19.20175 | 38931 ft | 526 kts | 116° |
| 2026-05-08 01:42 | 15.36272 | -19.13107 | 38926 ft | 525 kts | 116° |
| 2026-05-08 01:42 | 15.33673 | -19.06041 | 38923 ft | 525 kts | 116° |
| 2026-05-08 01:43 | 15.31055 | -18.98933 | 38922 ft | 524 kts | 116° |
| 2026-05-08 01:43 | 15.28479 | -18.91941 | 38920 ft | 524 kts | 116° |
| 2026-05-08 01:44 | 15.25866 | -18.84860 | 38917 ft | 524 kts | 116° |
| 2026-05-08 01:44 | 15.23253 | -18.77788 | 38916 ft | 524 kts | 116° |
| 2026-05-08 01:45 | 15.20666 | -18.70791 | 38921 ft | 524 kts | 116° |
| 2026-05-08 01:45 | 15.18065 | -18.63764 | 38921 ft | 524 kts | 115° |
| 2026-05-08 01:46 | 15.15433 | -18.56661 | 38923 ft | 524 kts | 116° |
| 2026-05-08 01:46 | 15.12843 | -18.49680 | 38929 ft | 524 kts | 116° |
| 2026-05-08 01:47 | 15.10231 | -18.42649 | 38923 ft | 524 kts | 116° |
| 2026-05-08 01:47 | 15.07578 | -18.35515 | 38924 ft | 524 kts | 115° |
| 2026-05-08 01:48 | 15.03674 | -18.25025 | 38904 ft | 523 kts | 116° |
| 2026-05-08 01:48 | 15.01063 | -18.18021 | 38906 ft | 523 kts | 116° |
| 2026-05-08 01:49 | 14.98441 | -18.10995 | 38901 ft | 522 kts | 116° |
| 2026-05-08 01:49 | 14.95820 | -18.03985 | 38907 ft | 522 kts | 116° |
| 2026-05-08 01:50 | 14.93174 | -17.96925 | 38911 ft | 522 kts | 116° |
| 2026-05-08 01:50 | 14.90553 | -17.89973 | 38911 ft | 522 kts | 116° |
| 2026-05-08 01:51 | 14.87922 | -17.83003 | 38915 ft | 522 kts | 116° |
| 2026-05-08 01:51 | 14.85296 | -17.76047 | 38913 ft | 522 kts | 116° |
| 2026-05-08 01:52 | 14.82642 | -17.69031 | 38916 ft | 522 kts | 116° |
| 2026-05-08 01:52 | 14.80023 | -17.62111 | 38909 ft | 522 kts | 116° |
| 2026-05-08 01:53 | 14.77378 | -17.55132 | 38912 ft | 522 kts | 116° |
| 2026-05-08 01:53 | 14.74720 | -17.48192 | 38917 ft | 520 kts | 119° |
| 2026-05-08 01:54 | 14.73044 | -17.45099 | 38926 ft | 510 kts | 130° |
| 2026-05-08 01:54 | 14.70994 | -17.42097 | 38943 ft | 510 kts | 129° |
| 2026-05-08 01:54 | 14.67008 | -17.36043 | 38935 ft | 511 kts | 129° |
| 2026-05-08 01:55 | 14.63048 | -17.29987 | 38912 ft | 511 kts | 129° |
| 2026-05-08 01:55 | 14.59070 | -17.23904 | 38904 ft | 510 kts | 129° |
| 2026-05-08 01:56 | 14.55109 | -17.17854 | 38898 ft | 510 kts | 129° |
| 2026-05-08 01:56 | 14.51165 | -17.11832 | 38900 ft | 510 kts | 129° |
| 2026-05-08 01:57 | 14.47172 | -17.05741 | 38899 ft | 509 kts | 129° |
| 2026-05-08 01:57 | 14.43234 | -16.99737 | 38900 ft | 509 kts | 129° |
| 2026-05-08 01:58 | 14.39289 | -16.93729 | 38892 ft | 509 kts | 129° |
| 2026-05-08 01:58 | 14.35339 | -16.87718 | 38883 ft | 508 kts | 129° |
| 2026-05-08 01:59 | 14.31395 | -16.81719 | 38880 ft | 508 kts | 129° |
| 2026-05-08 01:59 | 14.27430 | -16.75694 | 38883 ft | 507 kts | 129° |
| 2026-05-08 02:00 | 14.23483 | -16.69699 | 38885 ft | 507 kts | 129° |
| 2026-05-08 02:00 | 14.19516 | -16.63678 | 38892 ft | 507 kts | 129° |
| 2026-05-08 02:01 | 14.15576 | -16.57703 | 38883 ft | 507 kts | 129° |
| 2026-05-08 02:01 | 14.11597 | -16.51671 | 38882 ft | 506 kts | 129° |
| 2026-05-08 02:02 | 14.07642 | -16.45683 | 38868 ft | 506 kts | 129° |
| 2026-05-08 02:02 | 14.03757 | -16.39805 | 38867 ft | 506 kts | 129° |
| 2026-05-08 02:03 | 13.99797 | -16.33816 | 38859 ft | 506 kts | 129° |
| 2026-05-08 02:03 | 13.95837 | -16.27832 | 38856 ft | 505 kts | 129° |
| 2026-05-08 02:04 | 13.91887 | -16.21867 | 38858 ft | 504 kts | 129° |
| 2026-05-08 02:04 | 13.87968 | -16.15956 | 38874 ft | 503 kts | 129° |
| 2026-05-08 02:05 | 13.84013 | -16.09991 | 38870 ft | 503 kts | 129° |
| 2026-05-08 02:05 | 13.80078 | -16.04061 | 38867 ft | 503 kts | 129° |
| 2026-05-08 02:06 | 13.76136 | -15.98126 | 38859 ft | 503 kts | 129° |
| 2026-05-08 02:06 | 13.72210 | -15.92218 | 38865 ft | 503 kts | 129° |
| 2026-05-08 02:07 | 13.68234 | -15.86241 | 38863 ft | 503 kts | 129° |
| 2026-05-08 02:07 | 13.64307 | -15.80339 | 38862 ft | 503 kts | 129° |
| 2026-05-08 02:08 | 13.60395 | -15.74464 | 38870 ft | 503 kts | 129° |
| 2026-05-08 02:08 | 13.56440 | -15.68530 | 38861 ft | 503 kts | 129° |
| 2026-05-08 02:09 | 13.52469 | -15.62576 | 38861 ft | 503 kts | 129° |
| 2026-05-08 02:09 | 13.48530 | -15.56673 | 38857 ft | 503 kts | 129° |
| 2026-05-08 02:10 | 13.44590 | -15.50774 | 38858 ft | 503 kts | 129° |
| 2026-05-08 02:10 | 13.40651 | -15.44878 | 38855 ft | 502 kts | 129° |
| 2026-05-08 02:11 | 13.36670 | -15.38926 | 38854 ft | 502 kts | 129° |
| 2026-05-08 02:11 | 13.32718 | -15.33020 | 38845 ft | 502 kts | 129° |
| 2026-05-08 02:12 | 13.28795 | -15.27162 | 38842 ft | 501 kts | 129° |
| 2026-05-08 02:12 | 13.24859 | -15.21286 | 38842 ft | 500 kts | 129° |
| 2026-05-08 02:13 | 13.20907 | -15.15393 | 38845 ft | 500 kts | 129° |
| 2026-05-08 02:13 | 13.17015 | -15.09591 | 38845 ft | 500 kts | 129° |
| 2026-05-08 02:14 | 13.13095 | -15.03757 | 38849 ft | 499 kts | 129° |
| 2026-05-08 02:14 | 13.09192 | -14.97948 | 38841 ft | 499 kts | 129° |
| 2026-05-08 02:15 | 13.05257 | -14.92098 | 38836 ft | 499 kts | 129° |
| 2026-05-08 02:15 | 13.01317 | -14.86241 | 38838 ft | 499 kts | 129° |
| 2026-05-08 02:16 | 12.97391 | -14.80412 | 38847 ft | 499 kts | 129° |
| 2026-05-08 02:16 | 12.93481 | -14.74609 | 38847 ft | 498 kts | 129° |
| 2026-05-08 02:17 | 12.89585 | -14.68830 | 38849 ft | 498 kts | 129° |
| 2026-05-08 02:17 | 12.85644 | -14.62992 | 38855 ft | 498 kts | 129° |
| 2026-05-08 02:18 | 12.81746 | -14.57217 | 38859 ft | 498 kts | 129° |
| 2026-05-08 02:18 | 12.77801 | -14.51378 | 38862 ft | 498 kts | 129° |
| 2026-05-08 02:19 | 12.73860 | -14.45545 | 38858 ft | 499 kts | 128° |
| 2026-05-08 02:19 | 12.69915 | -14.39714 | 38857 ft | 499 kts | 129° |
| 2026-05-08 02:20 | 12.65957 | -14.33868 | 38853 ft | 499 kts | 129° |
| 2026-05-08 02:20 | 12.62026 | -14.28063 | 38857 ft | 499 kts | 129° |
| 2026-05-08 02:21 | 12.58080 | -14.22240 | 38852 ft | 498 kts | 129° |
| 2026-05-08 02:21 | 12.54139 | -14.16431 | 38843 ft | 498 kts | 129° |
| 2026-05-08 02:22 | 12.50200 | -14.10625 | 38848 ft | 497 kts | 129° |
| 2026-05-08 02:22 | 12.46291 | -14.04867 | 38858 ft | 497 kts | 128° |
| 2026-05-08 02:23 | 12.42330 | -13.99037 | 38862 ft | 497 kts | 128° |
| 2026-05-08 02:23 | 12.38421 | -13.93286 | 38862 ft | 498 kts | 128° |
| 2026-05-08 02:24 | 12.34448 | -13.87447 | 38855 ft | 498 kts | 129° |
| 2026-05-08 02:24 | 12.30580 | -13.81761 | 38855 ft | 499 kts | 129° |
| 2026-05-08 02:25 | 12.26632 | -13.75967 | 38859 ft | 498 kts | 129° |
| 2026-05-08 02:25 | 12.22321 | -13.70495 | 38863 ft | 495 kts | 133° |
| 2026-05-08 02:26 | 12.17975 | -13.65018 | 38867 ft | 495 kts | 133° |
| 2026-05-08 02:26 | 12.13678 | -13.59586 | 38877 ft | 496 kts | 133° |
| 2026-05-08 02:27 | 12.09404 | -13.54187 | 38873 ft | 496 kts | 132° |
| 2026-05-08 02:27 | 12.05017 | -13.48646 | 38880 ft | 496 kts | 132° |
| 2026-05-08 02:28 | 12.00679 | -13.43172 | 38884 ft | 497 kts | 132° |
| 2026-05-08 02:28 | 11.96409 | -13.37786 | 38893 ft | 497 kts | 132° |
| 2026-05-08 02:29 | 11.92096 | -13.32348 | 38876 ft | 496 kts | 133° |
| 2026-05-08 02:29 | 11.87747 | -13.26869 | 38887 ft | 496 kts | 132° |
| 2026-05-08 02:30 | 11.83388 | -13.21379 | 38885 ft | 496 kts | 132° |
| 2026-05-08 02:30 | 11.79115 | -13.16001 | 38901 ft | 496 kts | 132° |
| 2026-05-08 02:31 | 11.75178 | -13.10409 | 38917 ft | 498 kts | 127° |
| 2026-05-08 02:31 | 11.71208 | -13.04522 | 38915 ft | 498 kts | 128° |
| 2026-05-08 02:32 | 11.67284 | -12.98739 | 38934 ft | 498 kts | 128° |
| 2026-05-08 02:32 | 11.63389 | -12.93007 | 38928 ft | 498 kts | 128° |
| 2026-05-08 02:33 | 11.59513 | -12.87307 | 38942 ft | 498 kts | 128° |
| 2026-05-08 02:33 | 11.55581 | -12.81526 | 38946 ft | 498 kts | 127° |
| 2026-05-08 02:34 | 11.51601 | -12.75679 | 38943 ft | 498 kts | 127° |
| 2026-05-08 02:34 | 11.47735 | -12.70001 | 38967 ft | 497 kts | 127° |
| 2026-05-08 02:35 | 11.43861 | -12.64318 | 38983 ft | 497 kts | 127° |
| 2026-05-08 02:35 | 11.39971 | -12.58612 | 39007 ft | 497 kts | 127° |
| 2026-05-08 02:36 | 11.36020 | -12.52821 | 39028 ft | 497 kts | 127° |
| 2026-05-08 02:36 | 11.32155 | -12.47158 | 39038 ft | 497 kts | 127° |
| 2026-05-08 02:37 | 11.28262 | -12.41457 | 39043 ft | 497 kts | 127° |
| 2026-05-08 02:37 | 11.24337 | -12.35740 | 39042 ft | 497 kts | 128° |
| 2026-05-08 02:38 | 11.20275 | -12.30045 | 39032 ft | 497 kts | 129° |
| 2026-05-08 02:38 | 11.16269 | -12.24420 | 39026 ft | 496 kts | 128° |
| 2026-05-08 02:39 | 11.12252 | -12.18787 | 39014 ft | 496 kts | 128° |
| 2026-05-08 02:39 | 11.08248 | -12.13170 | 39007 ft | 495 kts | 128° |
| 2026-05-08 02:40 | 11.04213 | -12.07511 | 39005 ft | 495 kts | 128° |
| 2026-05-08 02:40 | 11.00181 | -12.01861 | 38999 ft | 495 kts | 128° |
| 2026-05-08 02:41 | 10.96176 | -11.96251 | 39002 ft | 495 kts | 128° |
| 2026-05-08 02:41 | 10.92268 | -11.90783 | 38998 ft | 495 kts | 128° |
| 2026-05-08 02:42 | 10.88269 | -11.85187 | 38994 ft | 494 kts | 128° |
| 2026-05-08 02:42 | 10.84197 | -11.79495 | 38989 ft | 494 kts | 128° |
| 2026-05-08 02:43 | 10.80203 | -11.73913 | 38973 ft | 493 kts | 128° |
| 2026-05-08 02:43 | 10.76284 | -11.68440 | 38973 ft | 492 kts | 128° |
| 2026-05-08 02:44 | 10.72262 | -11.62824 | 38975 ft | 491 kts | 128° |
| 2026-05-08 02:44 | 10.68216 | -11.57177 | 38983 ft | 490 kts | 128° |
| 2026-05-08 02:45 | 10.64152 | -11.51687 | 38992 ft | 489 kts | 129° |
| 2026-05-08 02:45 | 10.60170 | -11.46423 | 38987 ft | 487 kts | 129° |
| 2026-05-08 02:46 | 10.56039 | -11.40961 | 38987 ft | 486 kts | 129° |
| 2026-05-08 02:46 | 10.51910 | -11.35508 | 38981 ft | 486 kts | 129° |
| 2026-05-08 02:47 | 10.47861 | -11.30162 | 38968 ft | 485 kts | 129° |
| 2026-05-08 02:47 | 10.43858 | -11.24876 | 38974 ft | 484 kts | 129° |
| 2026-05-08 02:48 | 10.39772 | -11.19484 | 38961 ft | 483 kts | 129° |
| 2026-05-08 02:48 | 10.35649 | -11.14049 | 38961 ft | 482 kts | 129° |
| 2026-05-08 02:49 | 10.31607 | -11.08721 | 38951 ft | 481 kts | 129° |
| 2026-05-08 02:49 | 10.27648 | -11.03504 | 38947 ft | 480 kts | 129° |
| 2026-05-08 02:50 | 10.23725 | -10.98020 | 38934 ft | 480 kts | 122° |
| 2026-05-08 02:50 | 10.20300 | -10.92272 | 38919 ft | 480 kts | 123° |
| 2026-05-08 02:51 | 10.16808 | -10.86506 | 38921 ft | 480 kts | 123° |
| 2026-05-08 02:51 | 10.13426 | -10.80929 | 38928 ft | 480 kts | 123° |
| 2026-05-08 02:52 | 10.09933 | -10.75176 | 38943 ft | 480 kts | 123° |
| 2026-05-08 02:52 | 10.06222 | -10.69711 | 38958 ft | 478 kts | 127° |
| 2026-05-08 02:53 | 10.02292 | -10.64211 | 38950 ft | 479 kts | 127° |
| 2026-05-08 02:53 | 9.98475 | -10.58841 | 38947 ft | 479 kts | 127° |
| 2026-05-08 02:54 | 9.94605 | -10.53398 | 38948 ft | 480 kts | 127° |
| 2026-05-08 02:54 | 9.90777 | -10.48016 | 38951 ft | 481 kts | 127° |
| 2026-05-08 02:55 | 9.84957 | -10.39839 | 38967 ft | 482 kts | 127° |
| 2026-05-08 02:56 | 9.81052 | -10.34355 | 38969 ft | 482 kts | 127° |
| 2026-05-08 02:56 | 9.77134 | -10.28855 | 38974 ft | 483 kts | 127° |
| 2026-05-08 02:57 | 9.73280 | -10.23448 | 38974 ft | 483 kts | 127° |
| 2026-05-08 02:57 | 9.69419 | -10.18033 | 38964 ft | 483 kts | 127° |
| 2026-05-08 02:58 | 9.65493 | -10.12530 | 38954 ft | 484 kts | 127° |
| 2026-05-08 02:58 | 9.61570 | -10.07033 | 38952 ft | 484 kts | 127° |
| 2026-05-08 02:59 | 9.57717 | -10.01654 | 38943 ft | 485 kts | 127° |
| 2026-05-08 02:59 | 9.53759 | -9.96134 | 38961 ft | 486 kts | 127° |
| 2026-05-08 03:00 | 9.49785 | -9.90597 | 38959 ft | 486 kts | 127° |
| 2026-05-08 03:00 | 9.45839 | -9.85100 | 38953 ft | 487 kts | 127° |
| 2026-05-08 03:01 | 9.41965 | -9.79705 | 38959 ft | 487 kts | 127° |
| 2026-05-08 03:01 | 9.38017 | -9.74210 | 38958 ft | 487 kts | 127° |
| 2026-05-08 03:02 | 9.34033 | -9.68666 | 38980 ft | 486 kts | 127° |
| 2026-05-08 03:02 | 9.30076 | -9.63166 | 38979 ft | 486 kts | 127° |
| 2026-05-08 03:03 | 9.26223 | -9.57810 | 39000 ft | 486 kts | 127° |
| 2026-05-08 03:03 | 9.22301 | -9.52360 | 39021 ft | 486 kts | 127° |
| 2026-05-08 03:04 | 9.18305 | -9.46812 | 39032 ft | 486 kts | 127° |
| 2026-05-08 03:04 | 9.14337 | -9.41302 | 39029 ft | 486 kts | 127° |
| 2026-05-08 03:05 | 9.10464 | -9.35930 | 39018 ft | 486 kts | 127° |
| 2026-05-08 03:05 | 9.06547 | -9.30496 | 39023 ft | 486 kts | 127° |
| 2026-05-08 03:06 | 9.02674 | -9.24943 | 39023 ft | 485 kts | 125° |
| 2026-05-08 03:06 | 8.98834 | -9.19297 | 39018 ft | 485 kts | 125° |
| 2026-05-08 03:07 | 8.95126 | -9.13856 | 39013 ft | 485 kts | 125° |
| 2026-05-08 03:07 | 8.91350 | -9.08316 | 39013 ft | 485 kts | 125° |
| 2026-05-08 03:08 | 8.87553 | -9.02748 | 39001 ft | 484 kts | 125° |
| 2026-05-08 03:08 | 8.83733 | -8.97149 | 38998 ft | 484 kts | 125° |
| 2026-05-08 03:09 | 8.80082 | -8.91797 | 39002 ft | 483 kts | 125° |
| 2026-05-08 03:09 | 8.76447 | -8.86477 | 38992 ft | 483 kts | 124° |
| 2026-05-08 03:10 | 8.72591 | -8.80830 | 38995 ft | 482 kts | 124° |
| 2026-05-08 03:10 | 8.68766 | -8.75231 | 38997 ft | 482 kts | 125° |
| 2026-05-08 03:11 | 8.65046 | -8.69791 | 39002 ft | 481 kts | 125° |
| 2026-05-08 03:11 | 8.61315 | -8.64335 | 39005 ft | 482 kts | 125° |
| 2026-05-08 03:12 | 8.57559 | -8.58848 | 39005 ft | 483 kts | 125° |
| 2026-05-08 03:12 | 8.53707 | -8.53219 | 39002 ft | 484 kts | 125° |
| 2026-05-08 03:13 | 8.49911 | -8.47678 | 38993 ft | 485 kts | 124° |
| 2026-05-08 03:13 | 8.46119 | -8.42141 | 38985 ft | 486 kts | 124° |
| 2026-05-08 03:14 | 8.42341 | -8.36627 | 38977 ft | 487 kts | 124° |
| 2026-05-08 03:14 | 8.38460 | -8.30967 | 38969 ft | 488 kts | 125° |
| 2026-05-08 03:15 | 8.34636 | -8.25383 | 38971 ft | 488 kts | 125° |
| 2026-05-08 03:15 | 8.30788 | -8.19759 | 38972 ft | 489 kts | 124° |
| 2026-05-08 03:16 | 8.27045 | -8.14291 | 38971 ft | 489 kts | 124° |
| 2026-05-08 03:16 | 8.23147 | -8.08600 | 38975 ft | 489 kts | 124° |
| 2026-05-08 03:17 | 8.19311 | -8.03000 | 38976 ft | 489 kts | 124° |
| 2026-05-08 03:17 | 8.15464 | -7.97387 | 38970 ft | 490 kts | 124° |
| 2026-05-08 03:18 | 8.11721 | -7.91929 | 38972 ft | 490 kts | 124° |
| 2026-05-08 03:18 | 8.07795 | -7.86204 | 38962 ft | 490 kts | 124° |
| 2026-05-08 03:19 | 8.03951 | -7.80602 | 38964 ft | 490 kts | 124° |
| 2026-05-08 03:19 | 8.00144 | -7.75056 | 38970 ft | 490 kts | 124° |
| 2026-05-08 03:20 | 7.96413 | -7.69621 | 38971 ft | 489 kts | 124° |
| 2026-05-08 03:20 | 7.92456 | -7.63860 | 38962 ft | 489 kts | 124° |
| 2026-05-08 03:21 | 7.88614 | -7.58269 | 38967 ft | 489 kts | 124° |
| 2026-05-08 03:21 | 7.84763 | -7.52670 | 38973 ft | 489 kts | 124° |
| 2026-05-08 03:22 | 7.81006 | -7.47206 | 38986 ft | 489 kts | 124° |
| 2026-05-08 03:22 | 7.77080 | -7.41499 | 38986 ft | 489 kts | 124° |
| 2026-05-08 03:23 | 7.73237 | -7.35917 | 38975 ft | 489 kts | 124° |
| 2026-05-08 03:23 | 7.69402 | -7.30347 | 38955 ft | 489 kts | 124° |
| 2026-05-08 03:24 | 7.65649 | -7.24895 | 38940 ft | 489 kts | 124° |
| 2026-05-08 03:24 | 7.61740 | -7.19222 | 38927 ft | 489 kts | 124° |
| 2026-05-08 03:25 | 7.57907 | -7.13659 | 38920 ft | 489 kts | 124° |
| 2026-05-08 03:25 | 7.54050 | -7.08068 | 38915 ft | 489 kts | 124° |
| 2026-05-08 03:26 | 7.50241 | -7.02545 | 38919 ft | 489 kts | 124° |
| 2026-05-08 03:26 | 7.46309 | -6.96848 | 38921 ft | 490 kts | 124° |
| 2026-05-08 03:27 | 7.42470 | -6.91284 | 38922 ft | 489 kts | 124° |
| 2026-05-08 03:27 | 7.38572 | -6.85639 | 38924 ft | 489 kts | 124° |
| 2026-05-08 03:28 | 7.34730 | -6.80076 | 38924 ft | 490 kts | 124° |
| 2026-05-08 03:28 | 7.30823 | -6.74422 | 38925 ft | 490 kts | 124° |
| 2026-05-08 03:29 | 7.26935 | -6.68799 | 38924 ft | 490 kts | 124° |
| 2026-05-08 03:29 | 7.23034 | -6.63155 | 38924 ft | 491 kts | 124° |
| 2026-05-08 03:30 | 7.17212 | -6.54739 | 38923 ft | 491 kts | 123° |
| 2026-05-08 03:31 | 7.09424 | -6.43489 | 38940 ft | 491 kts | 123° |
| 2026-05-08 03:32 | 7.03576 | -6.35047 | 38934 ft | 491 kts | 123° |
| 2026-05-08 03:32 | 6.99734 | -6.29500 | 38938 ft | 491 kts | 124° |
| 2026-05-08 03:33 | 6.95815 | -6.23848 | 38939 ft | 491 kts | 123° |
| 2026-05-08 03:33 | 6.91868 | -6.18153 | 38940 ft | 491 kts | 124° |
| 2026-05-08 03:34 | 6.87967 | -6.12529 | 38936 ft | 491 kts | 124° |
| 2026-05-08 03:34 | 6.84073 | -6.06918 | 38935 ft | 491 kts | 123° |
| 2026-05-08 03:35 | 6.80137 | -6.01246 | 38937 ft | 491 kts | 123° |
| 2026-05-08 03:35 | 6.76272 | -5.95546 | 38923 ft | 489 kts | 117° |
| 2026-05-08 03:35 | 6.75034 | -5.92399 | 38943 ft | 484 kts | 101° |
| 2026-05-08 03:36 | 6.74552 | -5.89167 | 38976 ft | 482 kts | 95° |
| 2026-05-08 03:36 | 6.73532 | -5.82501 | 38940 ft | 484 kts | 98° |
| 2026-05-08 03:37 | 6.72405 | -5.75842 | 38926 ft | 484 kts | 98° |
| 2026-05-08 03:37 | 6.71266 | -5.69186 | 38920 ft | 484 kts | 98° |
| 2026-05-08 03:38 | 6.70131 | -5.62555 | 38914 ft | 484 kts | 98° |
| 2026-05-08 03:38 | 6.68980 | -5.55842 | 38912 ft | 484 kts | 98° |
| 2026-05-08 03:39 | 6.67833 | -5.49157 | 38905 ft | 485 kts | 98° |
| 2026-05-08 03:39 | 6.66684 | -5.42461 | 38898 ft | 484 kts | 98° |
| 2026-05-08 03:40 | 6.65550 | -5.35857 | 38900 ft | 484 kts | 98° |
| 2026-05-08 03:40 | 6.64401 | -5.29184 | 38899 ft | 484 kts | 98° |
| 2026-05-08 03:41 | 6.63265 | -5.22579 | 38893 ft | 484 kts | 98° |
| 2026-05-08 03:41 | 6.62127 | -5.15972 | 38893 ft | 484 kts | 98° |
| 2026-05-08 03:42 | 6.60993 | -5.09391 | 38880 ft | 484 kts | 98° |
| 2026-05-08 03:42 | 6.59846 | -5.02742 | 38885 ft | 484 kts | 98° |
| 2026-05-08 03:43 | 6.58725 | -4.96259 | 38880 ft | 484 kts | 98° |
| 2026-05-08 03:43 | 6.57580 | -4.89633 | 38877 ft | 484 kts | 98° |
| 2026-05-08 03:44 | 6.56449 | -4.83085 | 38875 ft | 484 kts | 98° |
| 2026-05-08 03:44 | 6.55299 | -4.76450 | 38872 ft | 483 kts | 98° |
| 2026-05-08 03:45 | 6.54163 | -4.69890 | 38871 ft | 483 kts | 98° |
| 2026-05-08 03:45 | 6.53020 | -4.63296 | 38871 ft | 483 kts | 98° |
| 2026-05-08 03:46 | 6.51890 | -4.56781 | 38871 ft | 483 kts | 98° |
| 2026-05-08 03:46 | 6.50723 | -4.50060 | 38872 ft | 482 kts | 98° |
| 2026-05-08 03:47 | 6.49572 | -4.43432 | 38874 ft | 482 kts | 99° |
| 2026-05-08 03:47 | 6.48419 | -4.36808 | 38884 ft | 482 kts | 98° |
| 2026-05-08 03:48 | 6.47260 | -4.30148 | 38896 ft | 482 kts | 98° |
| 2026-05-08 03:48 | 6.46099 | -4.23483 | 38898 ft | 482 kts | 98° |
| 2026-05-08 03:49 | 6.44960 | -4.16948 | 38899 ft | 482 kts | 99° |
| 2026-05-08 03:49 | 6.43806 | -4.10332 | 38899 ft | 481 kts | 99° |
| 2026-05-08 03:50 | 6.42648 | -4.03700 | 38899 ft | 481 kts | 99° |
| 2026-05-08 03:50 | 6.41493 | -3.97090 | 38899 ft | 481 kts | 98° |
| 2026-05-08 03:51 | 6.40343 | -3.90514 | 38896 ft | 481 kts | 99° |
| 2026-05-08 03:51 | 6.39175 | -3.83839 | 38898 ft | 481 kts | 99° |
| 2026-05-08 03:52 | 6.38015 | -3.77214 | 38899 ft | 481 kts | 99° |
| 2026-05-08 03:52 | 6.36861 | -3.70630 | 38899 ft | 480 kts | 99° |
| 2026-05-08 03:53 | 6.35707 | -3.64053 | 38897 ft | 480 kts | 99° |
| 2026-05-08 03:53 | 6.34550 | -3.57459 | 38896 ft | 480 kts | 99° |
| 2026-05-08 03:54 | 6.33390 | -3.50862 | 38895 ft | 479 kts | 99° |
| 2026-05-08 03:54 | 6.32226 | -3.44244 | 38895 ft | 479 kts | 99° |
| 2026-05-08 03:55 | 6.31068 | -3.37658 | 38897 ft | 479 kts | 99° |
| 2026-05-08 03:55 | 6.30295 | -3.33269 | 38897 ft | 479 kts | 99° |
| 2026-05-08 03:56 | 6.29817 | -3.30552 | 38902 ft | 478 kts | 99° |
| 2026-05-08 03:56 | 6.28655 | -3.23961 | 38903 ft | 478 kts | 99° |
| 2026-05-08 03:57 | 6.27589 | -3.17375 | 38887 ft | 476 kts | 92° |
| 2026-05-08 03:57 | 6.27524 | -3.10821 | 38886 ft | 476 kts | 90° |
| 2026-05-08 03:58 | 6.27418 | -3.04160 | 38898 ft | 476 kts | 90° |
| 2026-05-08 03:58 | 6.27302 | -2.97482 | 38900 ft | 476 kts | 90° |
| 2026-05-08 03:59 | 6.27185 | -2.90860 | 38900 ft | 476 kts | 90° |
| 2026-05-08 03:59 | 6.27069 | -2.84321 | 38901 ft | 476 kts | 90° |
| 2026-05-08 04:00 | 6.26949 | -2.77691 | 38902 ft | 476 kts | 90° |
| 2026-05-08 04:00 | 6.26829 | -2.71040 | 38899 ft | 476 kts | 90° |
| 2026-05-08 04:01 | 6.26708 | -2.64393 | 38897 ft | 476 kts | 90° |
| 2026-05-08 04:01 | 6.26588 | -2.57883 | 38896 ft | 476 kts | 90° |
| 2026-05-08 04:02 | 6.26465 | -2.51195 | 38894 ft | 476 kts | 90° |
| 2026-05-08 04:02 | 6.26341 | -2.44518 | 38892 ft | 476 kts | 90° |
| 2026-05-08 04:03 | 6.26218 | -2.37916 | 38894 ft | 477 kts | 90° |
| 2026-05-08 04:03 | 6.26031 | -2.28057 | 38899 ft | 477 kts | 90° |
| 2026-05-08 04:04 | 6.25905 | -2.21427 | 38898 ft | 477 kts | 90° |
| 2026-05-08 04:04 | 6.25777 | -2.14744 | 38897 ft | 477 kts | 90° |
| 2026-05-08 04:05 | 6.25648 | -2.08069 | 38901 ft | 477 kts | 91° |
| 2026-05-08 04:05 | 6.25521 | -2.01511 | 38905 ft | 477 kts | 91° |
| 2026-05-08 04:06 | 6.25392 | -1.94908 | 38905 ft | 477 kts | 91° |
| 2026-05-08 04:06 | 6.25258 | -1.88168 | 38901 ft | 477 kts | 90° |
| 2026-05-08 04:07 | 6.25128 | -1.81540 | 38899 ft | 478 kts | 90° |
| 2026-05-08 04:07 | 6.24997 | -1.74957 | 38902 ft | 478 kts | 90° |
| 2026-05-08 04:08 | 6.24865 | -1.68331 | 38902 ft | 477 kts | 90° |
| 2026-05-08 04:08 | 6.24730 | -1.61652 | 38897 ft | 477 kts | 90° |
| 2026-05-08 04:09 | 6.24596 | -1.55032 | 38890 ft | 478 kts | 90° |
| 2026-05-08 04:09 | 6.24461 | -1.48462 | 38891 ft | 478 kts | 90° |
| 2026-05-08 04:10 | 6.24324 | -1.41801 | 38887 ft | 478 kts | 90° |
| 2026-05-08 04:10 | 6.24187 | -1.35156 | 38884 ft | 478 kts | 90° |
| 2026-05-08 04:11 | 6.24049 | -1.28526 | 38883 ft | 478 kts | 90° |
| 2026-05-08 04:11 | 6.23911 | -1.21917 | 38882 ft | 478 kts | 90° |
| 2026-05-08 04:12 | 6.23771 | -1.15233 | 38882 ft | 478 kts | 90° |
| 2026-05-08 04:12 | 6.23630 | -1.08558 | 38879 ft | 478 kts | 90° |
| 2026-05-08 04:13 | 6.23489 | -1.01962 | 38877 ft | 478 kts | 90° |
| 2026-05-08 04:13 | 6.23348 | -0.95333 | 38882 ft | 477 kts | 90° |
| 2026-05-08 04:14 | 6.23214 | -0.88714 | 38887 ft | 477 kts | 90° |
| 2026-05-08 04:14 | 6.23078 | -0.82073 | 38891 ft | 477 kts | 90° |
| 2026-05-08 04:15 | 6.22944 | -0.75461 | 38887 ft | 478 kts | 90° |
| 2026-05-08 04:15 | 6.22808 | -0.68853 | 38895 ft | 478 kts | 90° |
| 2026-05-08 04:16 | 6.22670 | -0.62196 | 38894 ft | 478 kts | 90° |
| 2026-05-08 04:16 | 6.22532 | -0.55542 | 38894 ft | 479 kts | 90° |
| 2026-05-08 04:17 | 6.22392 | -0.48876 | 38897 ft | 478 kts | 90° |
| 2026-05-08 04:17 | 6.22252 | -0.42241 | 38901 ft | 478 kts | 90° |
| 2026-05-08 04:18 | 6.22111 | -0.35571 | 38906 ft | 478 kts | 90° |
| 2026-05-08 04:18 | 6.21970 | -0.28986 | 38910 ft | 479 kts | 90° |
| 2026-05-08 04:19 | 6.21824 | -0.22281 | 38913 ft | 479 kts | 90° |
| 2026-05-08 04:19 | 6.21675 | -0.15566 | 38905 ft | 479 kts | 90° |
| 2026-05-08 04:20 | 6.21531 | -0.08850 | 38760 ft | 480 kts | 90° |
| 2026-05-08 04:20 | 6.21464 | -0.05731 | 38184 ft | 476 kts | 90° |
| 2026-05-08 04:20 | 6.21392 | -0.02307 | 36816 ft | 479 kts | 90° |
| 2026-05-08 04:21 | 6.21321 | 0.00989 | 37008 ft | 462 kts | 90° |
| 2026-05-08 04:21 | 6.21251 | 0.04201 | 36882 ft | 471 kts | 91° |
| 2026-05-08 04:21 | 6.21105 | 0.10810 | 36950 ft | 475 kts | 91° |
| 2026-05-08 04:22 | 6.21031 | 0.14160 | 36789 ft | 480 kts | 91° |
| 2026-05-08 04:22 | 6.20957 | 0.17507 | 36898 ft | 479 kts | 91° |
| 2026-05-08 04:22 | 6.20808 | 0.24138 | 36855 ft | 483 kts | 91° |
| 2026-05-08 04:23 | 6.20657 | 0.30850 | 36859 ft | 484 kts | 91° |
| 2026-05-08 04:23 | 6.20503 | 0.37672 | 36859 ft | 485 kts | 91° |
| 2026-05-08 04:24 | 6.20350 | 0.44407 | 36859 ft | 485 kts | 91° |
| 2026-05-08 04:24 | 6.20195 | 0.51182 | 36859 ft | 486 kts | 91° |
| 2026-05-08 04:25 | 6.20041 | 0.57923 | 36858 ft | 486 kts | 91° |
| 2026-05-08 04:25 | 6.19884 | 0.64695 | 36858 ft | 486 kts | 91° |
| 2026-05-08 04:26 | 6.19727 | 0.71486 | 36865 ft | 485 kts | 91° |
| 2026-05-08 04:26 | 6.19568 | 0.78271 | 36856 ft | 486 kts | 91° |
| 2026-05-08 04:27 | 6.19487 | 0.81699 | 36754 ft | 487 kts | 91° |
| 2026-05-08 04:27 | 6.19407 | 0.85155 | 36666 ft | 489 kts | 91° |
| 2026-05-08 04:27 | 6.19328 | 0.88497 | 36503 ft | 491 kts | 91° |
| 2026-05-08 04:27 | 6.19246 | 0.91965 | 36327 ft | 493 kts | 91° |
| 2026-05-08 04:28 | 6.19165 | 0.95384 | 36134 ft | 488 kts | 91° |
| 2026-05-08 04:28 | 6.19085 | 0.98753 | 35951 ft | 482 kts | 91° |
| 2026-05-08 04:28 | 6.19005 | 1.02102 | 35738 ft | 481 kts | 91° |
| 2026-05-08 04:28 | 6.18925 | 1.05457 | 35446 ft | 480 kts | 91° |
| 2026-05-08 04:29 | 6.18844 | 1.08831 | 35155 ft | 480 kts | 91° |
| 2026-05-08 04:29 | 6.18765 | 1.12145 | 34872 ft | 481 kts | 92° |
| 2026-05-08 04:29 | 6.18688 | 1.15339 | 34599 ft | 482 kts | 92° |
| 2026-05-08 04:29 | 6.18603 | 1.18817 | 34308 ft | 483 kts | 91° |
| 2026-05-08 04:30 | 6.18522 | 1.22157 | 34027 ft | 485 kts | 91° |
| 2026-05-08 04:30 | 6.18440 | 1.25544 | 33743 ft | 487 kts | 91° |
| 2026-05-08 04:30 | 6.18643 | 1.28927 | 33439 ft | 488 kts | 81° |
| 2026-05-08 04:30 | 6.19243 | 1.32290 | 33179 ft | 489 kts | 81° |
| 2026-05-08 04:31 | 6.19804 | 1.35680 | 32899 ft | 490 kts | 81° |
| 2026-05-08 04:31 | 6.20349 | 1.39058 | 32621 ft | 491 kts | 81° |
| 2026-05-08 04:31 | 6.20880 | 1.42374 | 32374 ft | 491 kts | 81° |
| 2026-05-08 04:31 | 6.21428 | 1.45814 | 32117 ft | 490 kts | 81° |
| 2026-05-08 04:32 | 6.21967 | 1.49204 | 31864 ft | 491 kts | 81° |
| 2026-05-08 04:32 | 6.22499 | 1.52548 | 31614 ft | 490 kts | 81° |
| 2026-05-08 04:32 | 6.23043 | 1.55969 | 31359 ft | 490 kts | 81° |
| 2026-05-08 04:32 | 6.23575 | 1.59326 | 31106 ft | 491 kts | 81° |
| 2026-05-08 04:33 | 6.24113 | 1.62710 | 30850 ft | 491 kts | 81° |
| 2026-05-08 04:33 | 6.24658 | 1.66140 | 30595 ft | 491 kts | 81° |
| 2026-05-08 04:33 | 6.25183 | 1.69456 | 30355 ft | 491 kts | 81° |
| 2026-05-08 04:33 | 6.25723 | 1.72860 | 30100 ft | 491 kts | 81° |
| 2026-05-08 04:34 | 6.26269 | 1.76298 | 29850 ft | 492 kts | 81° |
| 2026-05-08 04:34 | 6.26803 | 1.79669 | 29604 ft | 492 kts | 81° |
| 2026-05-08 04:34 | 6.27339 | 1.83059 | 29351 ft | 492 kts | 81° |
| 2026-05-08 04:34 | 6.27878 | 1.86465 | 29104 ft | 492 kts | 81° |
| 2026-05-08 04:35 | 6.28421 | 1.89901 | 28849 ft | 492 kts | 81° |
| 2026-05-08 04:35 | 6.28960 | 1.93307 | 28599 ft | 493 kts | 81° |
| 2026-05-08 04:35 | 6.29500 | 1.96717 | 28180 ft | 494 kts | 81° |
| 2026-05-08 04:35 | 6.30044 | 2.00156 | 27862 ft | 497 kts | 81° |
| 2026-05-08 04:36 | 6.30590 | 2.03616 | 27745 ft | 499 kts | 81° |
| 2026-05-08 04:36 | 6.31140 | 2.07098 | 27804 ft | 498 kts | 81° |
| 2026-05-08 04:36 | 6.31673 | 2.10466 | 27818 ft | 498 kts | 81° |
| 2026-05-08 04:36 | 6.32220 | 2.13922 | 27658 ft | 489 kts | 81° |
| 2026-05-08 04:37 | 6.32749 | 2.17267 | 27196 ft | 475 kts | 81° |
| 2026-05-08 04:37 | 6.33256 | 2.20510 | 27054 ft | 474 kts | 81° |
| 2026-05-08 04:37 | 6.33775 | 2.23806 | 26823 ft | 475 kts | 81° |
| 2026-05-08 04:37 | 6.34298 | 2.27130 | 26571 ft | 474 kts | 81° |
| 2026-05-08 04:38 | 6.34809 | 2.30381 | 26324 ft | 474 kts | 81° |
| 2026-05-08 04:38 | 6.35325 | 2.33657 | 26074 ft | 475 kts | 81° |
| 2026-05-08 04:38 | 6.35867 | 2.36976 | 25828 ft | 475 kts | 79° |
| 2026-05-08 04:38 | 6.36856 | 2.40099 | 25545 ft | 469 kts | 66° |
| 2026-05-08 04:39 | 6.38649 | 2.42813 | 25251 ft | 459 kts | 50° |
| 2026-05-08 04:39 | 6.40882 | 2.45115 | 25008 ft | 459 kts | 48° |
| 2026-05-08 04:39 | 6.42963 | 2.47490 | 24761 ft | 461 kts | 50° |
| 2026-05-08 04:39 | 6.45083 | 2.49999 | 24504 ft | 460 kts | 51° |
| 2026-05-08 04:40 | 6.47098 | 2.52409 | 24216 ft | 446 kts | 51° |
| 2026-05-08 04:40 | 6.49079 | 2.54790 | 23491 ft | 442 kts | 51° |
| 2026-05-08 04:40 | 6.51049 | 2.57160 | 22506 ft | 431 kts | 51° |
| 2026-05-08 04:40 | 6.52945 | 2.59441 | 20880 ft | 426 kts | 51° |
| 2026-05-08 04:41 | 6.54812 | 2.61689 | 19198 ft | 419 kts | 51° |
| 2026-05-08 04:41 | 6.56623 | 2.63869 | 17925 ft | 402 kts | 51° |
| 2026-05-08 04:41 | 6.58358 | 2.65959 | 16458 ft | 392 kts | 52° |
| 2026-05-08 04:41 | 6.60080 | 2.68034 | 14872 ft | 385 kts | 51° |
| 2026-05-08 04:42 | 6.61776 | 2.70076 | 13392 ft | 376 kts | 51° |
| 2026-05-08 04:42 | 6.63406 | 2.72043 | 11959 ft | 367 kts | 51° |
| 2026-05-08 04:42 | 6.65033 | 2.74003 | 10568 ft | 357 kts | 51° |
| 2026-05-08 04:42 | 6.66567 | 2.75845 | 10016 ft | 323 kts | 52° |
| 2026-05-08 04:43 | 6.67948 | 2.77509 | 9565 ft | 296 kts | 52° |
| 2026-05-08 04:43 | 6.69212 | 2.79028 | 9131 ft | 273 kts | 52° |
| 2026-05-08 04:43 | 6.70342 | 2.80454 | 9179 ft | 240 kts | 61° |
| 2026-05-08 04:43 | 6.70933 | 2.82014 | 9184 ft | 243 kts | 73° |
| 2026-05-08 04:44 | 6.71426 | 2.83628 | 9059 ft | 242 kts | 72° |
| 2026-05-08 04:44 | 6.71933 | 2.85272 | 8931 ft | 245 kts | 72° |
| 2026-05-08 04:44 | 6.72437 | 2.86912 | 8863 ft | 248 kts | 72° |
| 2026-05-08 04:44 | 6.72946 | 2.88596 | 8777 ft | 249 kts | 72° |
| 2026-05-08 04:45 | 6.73452 | 2.90258 | 8608 ft | 247 kts | 72° |
| 2026-05-08 04:45 | 6.73957 | 2.91909 | 8425 ft | 247 kts | 72° |
| 2026-05-08 04:45 | 6.74460 | 2.93568 | 8232 ft | 246 kts | 72° |
| 2026-05-08 04:45 | 6.74967 | 2.95234 | 8027 ft | 246 kts | 72° |
| 2026-05-08 04:46 | 6.75463 | 2.96862 | 7819 ft | 247 kts | 72° |
| 2026-05-08 04:46 | 6.75971 | 2.98533 | 7601 ft | 247 kts | 72° |
| 2026-05-08 04:46 | 6.76474 | 3.00190 | 7382 ft | 247 kts | 72° |
| 2026-05-08 04:46 | 6.76975 | 3.01834 | 7161 ft | 246 kts | 72° |
| 2026-05-08 04:47 | 6.77478 | 3.03489 | 6936 ft | 246 kts | 72° |
| 2026-05-08 04:47 | 6.77979 | 3.05138 | 6708 ft | 246 kts | 72° |
| 2026-05-08 04:47 | 6.78476 | 3.06772 | 6480 ft | 246 kts | 72° |
| 2026-05-08 04:47 | 6.78977 | 3.08419 | 6245 ft | 246 kts | 73° |
| 2026-05-08 04:48 | 6.79480 | 3.10075 | 6007 ft | 246 kts | 73° |
| 2026-05-08 04:48 | 6.79977 | 3.11709 | 5749 ft | 246 kts | 73° |
| 2026-05-08 04:48 | 6.80478 | 3.13360 | 5734 ft | 246 kts | 73° |
| 2026-05-08 04:48 | 6.80973 | 3.14993 | 5645 ft | 241 kts | 73° |
| 2026-05-08 04:49 | 6.81462 | 3.16600 | 5559 ft | 233 kts | 73° |
| 2026-05-08 04:49 | 6.81934 | 3.18155 | 5485 ft | 232 kts | 73° |
| 2026-05-08 04:49 | 6.82275 | 3.19722 | 5397 ft | 233 kts | 88° |
| 2026-05-08 04:49 | 6.82289 | 3.21367 | 5148 ft | 236 kts | 89° |
| 2026-05-08 04:50 | 6.82315 | 3.23033 | 5003 ft | 231 kts | 89° |
| 2026-05-08 04:50 | 6.82339 | 3.24585 | 4996 ft | 222 kts | 89° |
| 2026-05-08 04:50 | 6.82363 | 3.26146 | 4826 ft | 221 kts | 89° |
| 2026-05-08 04:50 | 6.82387 | 3.27690 | 4614 ft | 221 kts | 89° |
| 2026-05-08 04:51 | 6.82296 | 3.29224 | 4203 ft | 222 kts | 109° |
| 2026-05-08 04:51 | 6.81470 | 3.30494 | 3787 ft | 219 kts | 143° |
| 2026-05-08 04:51 | 6.80086 | 3.31059 | 3505 ft | 216 kts | 178° |
| 2026-05-08 04:51 | 6.78595 | 3.30989 | 3363 ft | 212 kts | 182° |
| 2026-05-08 04:52 | 6.77112 | 3.30988 | 3188 ft | 211 kts | 180° |
| 2026-05-08 04:52 | 6.75622 | 3.31026 | 3014 ft | 216 kts | 180° |
| 2026-05-08 04:52 | 6.74118 | 3.31075 | 3035 ft | 218 kts | 179° |
| 2026-05-08 04:52 | 6.72612 | 3.31134 | 2929 ft | 209 kts | 179° |
| 2026-05-08 04:53 | 6.71225 | 3.31206 | 2720 ft | 189 kts | 179° |
| 2026-05-08 04:53 | 6.69963 | 3.31246 | 2417 ft | 175 kts | 182° |
| 2026-05-08 04:53 | 6.68825 | 3.31254 | 2312 ft | 146 kts | 182° |
| 2026-05-08 04:53 | 6.67873 | 3.31282 | 2134 ft | 133 kts | 180° |
| 2026-05-08 04:54 | 6.66900 | 3.31326 | 2010 ft | 140 kts | 182° |
| 2026-05-08 04:54 | 6.65935 | 3.31304 | 1747 ft | 139 kts | 184° |
| 2026-05-08 04:54 | 6.64973 | 3.31239 | 1470 ft | 140 kts | 188° |
| 2026-05-08 04:54 | 6.63999 | 3.31247 | 1139 ft | 141 kts | 178° |
| 2026-05-08 04:55 | 6.63037 | 3.31271 | 906 ft | 139 kts | 181° |
| 2026-05-08 04:55 | 6.62071 | 3.31279 | 717 ft | 139 kts | 182° |
| 2026-05-08 04:55 | 6.61099 | 3.31289 | 564 ft | 140 kts | 181° |
| 2026-05-08 04:55 | 6.60116 | 3.31298 | 383 ft | 141 kts | 181° |
| 2026-05-08 04:56 | 6.59133 | 3.31310 | 199 ft | 142 kts | 180° |
| 2026-05-08 04:56 | 6.58136 | 3.31324 | 94 ft | 140 kts | 182° |
| 2026-05-08 04:56 | 6.57257 | 3.31332 | 75 ft | 103 kts | 180° |
| 2026-05-08 04:56 | 6.56738 | 3.31338 | 76 ft | 49 kts | 179° |
| 2026-05-08 04:57 | 6.56443 | 3.31429 | 82 ft | 27 kts | 140° |
| 2026-05-08 04:57 | 6.56433 | 3.31535 | 86 ft | 13 kts | 33° |